PTI737 KLAX-EGLL
Flight info
| Callsign | PTI737 |
|---|---|
| Flight time | 10h 3m |
| Altitude | 35000 |
| Route | ORCKA5 LAS Q70 BLIPP Q842 WINEN DCT BPI DCT BOY DCT DIK DCT YRL DCT PIGLA DCT MCKEE DCT VESMI/M080F350 DCT 59N050W 60N040W 59N030W 57N020W DCT BILTO/N0459F350 DCT BEGID DCT KUGUR DCT KELLY L10 WAL UY53 NUGRA |
| Aircraft | B737/M-SDE2E3FGHIRWXY/LB1 |
Departure
| Time | 2026-04-21 22:05 |
|---|---|
| Airport | Los Angeles International Airport (KLAX) |
Arrival
| Time | 2026-04-22 08:08 |
|---|---|
| Airport | London Heathrow Airport (EGLL) |
| Time | Latitude | Longitude | Altitude | Speed | Heading |
|---|---|---|---|---|---|
| 2026-04-21 21:48 | 33.93348 | -118.39922 | 92 ft | 0 kts | 82° |
| 2026-04-21 22:00 | 33.93348 | -118.39908 | 94 ft | 8 kts | 90° |
| 2026-04-21 22:01 | 33.93356 | -118.39833 | 93 ft | 9 kts | 54° |
| 2026-04-21 22:01 | 33.93433 | -118.39810 | 93 ft | 18 kts | 21° |
| 2026-04-21 22:01 | 33.93473 | -118.39664 | 92 ft | 21 kts | 83° |
| 2026-04-21 22:01 | 33.93491 | -118.39496 | 92 ft | 20 kts | 83° |
| 2026-04-21 22:02 | 33.93507 | -118.39332 | 93 ft | 19 kts | 83° |
| 2026-04-21 22:02 | 33.93523 | -118.39173 | 95 ft | 19 kts | 83° |
| 2026-04-21 22:02 | 33.93538 | -118.39019 | 93 ft | 18 kts | 83° |
| 2026-04-21 22:02 | 33.93552 | -118.38869 | 93 ft | 18 kts | 83° |
| 2026-04-21 22:03 | 33.93565 | -118.38726 | 92 ft | 17 kts | 83° |
| 2026-04-21 22:03 | 33.93581 | -118.38587 | 93 ft | 16 kts | 82° |
| 2026-04-21 22:03 | 33.93596 | -118.38454 | 95 ft | 16 kts | 83° |
| 2026-04-21 22:03 | 33.93610 | -118.38326 | 94 ft | 16 kts | 80° |
| 2026-04-21 22:04 | 33.93717 | -118.38302 | 95 ft | 22 kts | 311° |
| 2026-04-21 22:04 | 33.93697 | -118.38666 | 94 ft | 76 kts | 263° |
| 2026-04-21 22:04 | 33.93598 | -118.39560 | 93 ft | 137 kts | 264° |
| 2026-04-21 22:04 | 33.93443 | -118.40889 | 169 ft | 177 kts | 259° |
| 2026-04-21 22:05 | 33.93267 | -118.42309 | 1054 ft | 170 kts | 258° |
| 2026-04-21 22:05 | 33.93108 | -118.43826 | 1501 ft | 191 kts | 261° |
| 2026-04-21 22:05 | 33.92966 | -118.45433 | 2085 ft | 203 kts | 260° |
| 2026-04-21 22:05 | 33.92595 | -118.47150 | 2478 ft | 220 kts | 243° |
| 2026-04-21 22:06 | 33.91921 | -118.48932 | 2998 ft | 244 kts | 243° |
| 2026-04-21 22:06 | 33.91197 | -118.50810 | 4002 ft | 248 kts | 244° |
| 2026-04-21 22:06 | 33.90458 | -118.52704 | 4752 ft | 253 kts | 243° |
| 2026-04-21 22:06 | 33.89731 | -118.54597 | 4991 ft | 246 kts | 245° |
| 2026-04-21 22:07 | 33.89037 | -118.56487 | 4960 ft | 247 kts | 244° |
| 2026-04-21 22:07 | 33.88324 | -118.58367 | 5011 ft | 248 kts | 244° |
| 2026-04-21 22:07 | 33.87543 | -118.60236 | 4997 ft | 252 kts | 232° |
| 2026-04-21 22:07 | 33.86153 | -118.61441 | 5109 ft | 250 kts | 197° |
| 2026-04-21 22:08 | 33.84429 | -118.61412 | 5287 ft | 255 kts | 166° |
| 2026-04-21 22:08 | 33.82904 | -118.60212 | 5522 ft | 275 kts | 134° |
| 2026-04-21 22:08 | 33.81927 | -118.58234 | 6355 ft | 283 kts | 108° |
| 2026-04-21 22:08 | 33.81885 | -118.55830 | 6992 ft | 298 kts | 76° |
| 2026-04-21 22:09 | 33.82859 | -118.53644 | 7583 ft | 294 kts | 49° |
| 2026-04-21 22:09 | 33.84294 | -118.51870 | 7726 ft | 304 kts | 39° |
| 2026-04-21 22:09 | 33.85997 | -118.50300 | 8350 ft | 311 kts | 35° |
| 2026-04-21 22:09 | 33.87747 | -118.48742 | 9198 ft | 315 kts | 35° |
| 2026-04-21 22:10 | 33.89497 | -118.47138 | 10101 ft | 318 kts | 36° |
| 2026-04-21 22:10 | 33.91278 | -118.45470 | 10653 ft | 334 kts | 36° |
| 2026-04-21 22:10 | 33.93112 | -118.43567 | 10809 ft | 361 kts | 46° |
| 2026-04-21 22:10 | 33.94688 | -118.41093 | 10954 ft | 384 kts | 56° |
| 2026-04-21 22:11 | 33.96193 | -118.38340 | 11116 ft | 404 kts | 57° |
| 2026-04-21 22:11 | 33.97770 | -118.35436 | 11250 ft | 424 kts | 56° |
| 2026-04-21 22:11 | 33.99434 | -118.32445 | 11700 ft | 431 kts | 55° |
| 2026-04-21 22:11 | 34.01086 | -118.29521 | 12621 ft | 425 kts | 54° |
| 2026-04-21 22:12 | 34.02750 | -118.26590 | 13544 ft | 421 kts | 54° |
| 2026-04-21 22:12 | 34.04396 | -118.23694 | 14482 ft | 416 kts | 54° |
| 2026-04-21 22:12 | 34.06011 | -118.20845 | 15468 ft | 407 kts | 54° |
| 2026-04-21 22:12 | 34.07606 | -118.18030 | 16196 ft | 408 kts | 54° |
| 2026-04-21 22:13 | 34.09217 | -118.15184 | 16742 ft | 414 kts | 54° |
| 2026-04-21 22:13 | 34.10850 | -118.12295 | 17271 ft | 420 kts | 54° |
| 2026-04-21 22:13 | 34.12505 | -118.09365 | 17853 ft | 424 kts | 54° |
| 2026-04-21 22:13 | 34.14172 | -118.06411 | 18411 ft | 428 kts | 54° |
| 2026-04-21 22:14 | 34.15854 | -118.03427 | 18952 ft | 431 kts | 55° |
| 2026-04-21 22:14 | 34.17542 | -118.00428 | 19536 ft | 433 kts | 55° |
| 2026-04-21 22:14 | 34.19240 | -117.97409 | 20060 ft | 437 kts | 55° |
| 2026-04-21 22:14 | 34.20958 | -117.94352 | 20554 ft | 442 kts | 56° |
| 2026-04-21 22:15 | 34.22689 | -117.91270 | 21082 ft | 445 kts | 56° |
| 2026-04-21 22:15 | 34.24433 | -117.88161 | 21570 ft | 449 kts | 56° |
| 2026-04-21 22:15 | 34.26194 | -117.85021 | 22041 ft | 453 kts | 56° |
| 2026-04-21 22:15 | 34.27969 | -117.81851 | 22540 ft | 457 kts | 56° |
| 2026-04-21 22:16 | 34.29756 | -117.78656 | 23067 ft | 461 kts | 56° |
| 2026-04-21 22:16 | 34.31558 | -117.75434 | 23580 ft | 463 kts | 56° |
| 2026-04-21 22:16 | 34.33368 | -117.72195 | 24015 ft | 468 kts | 56° |
| 2026-04-21 22:16 | 34.35199 | -117.68915 | 24389 ft | 473 kts | 56° |
| 2026-04-21 22:17 | 34.37086 | -117.65640 | 24818 ft | 475 kts | 54° |
| 2026-04-21 22:17 | 34.39025 | -117.62392 | 25240 ft | 477 kts | 53° |
| 2026-04-21 22:17 | 34.40990 | -117.59143 | 25619 ft | 480 kts | 53° |
| 2026-04-21 22:17 | 34.42974 | -117.55866 | 25930 ft | 485 kts | 53° |
| 2026-04-21 22:18 | 34.44969 | -117.52556 | 26277 ft | 488 kts | 53° |
| 2026-04-21 22:18 | 34.46968 | -117.49221 | 26725 ft | 490 kts | 53° |
| 2026-04-21 22:18 | 34.48971 | -117.45865 | 27114 ft | 492 kts | 54° |
| 2026-04-21 22:18 | 34.50971 | -117.42502 | 27574 ft | 493 kts | 54° |
| 2026-04-21 22:19 | 34.52976 | -117.39123 | 27934 ft | 495 kts | 54° |
| 2026-04-21 22:19 | 34.54997 | -117.35713 | 28251 ft | 499 kts | 54° |
| 2026-04-21 22:19 | 34.57029 | -117.32283 | 28568 ft | 503 kts | 54° |
| 2026-04-21 22:19 | 34.59076 | -117.28823 | 28910 ft | 506 kts | 54° |
| 2026-04-21 22:20 | 34.61130 | -117.25350 | 29244 ft | 508 kts | 54° |
| 2026-04-21 22:20 | 34.63196 | -117.21853 | 29553 ft | 511 kts | 54° |
| 2026-04-21 22:20 | 34.65272 | -117.18337 | 29779 ft | 514 kts | 54° |
| 2026-04-21 22:20 | 34.67356 | -117.14802 | 30054 ft | 516 kts | 54° |
| 2026-04-21 22:21 | 34.69448 | -117.11252 | 30373 ft | 517 kts | 54° |
| 2026-04-21 22:21 | 34.71541 | -117.07697 | 30626 ft | 518 kts | 54° |
| 2026-04-21 22:21 | 34.73644 | -117.04120 | 30823 ft | 522 kts | 54° |
| 2026-04-21 22:21 | 34.75757 | -117.00522 | 31036 ft | 524 kts | 54° |
| 2026-04-21 22:22 | 34.77877 | -116.96909 | 31274 ft | 526 kts | 54° |
| 2026-04-21 22:22 | 34.80003 | -116.93281 | 31513 ft | 528 kts | 54° |
| 2026-04-21 22:22 | 34.81445 | -116.90819 | 31658 ft | 529 kts | 54° |
| 2026-04-21 22:22 | 34.83555 | -116.87213 | 31911 ft | 531 kts | 55° |
| 2026-04-21 22:23 | 34.85703 | -116.83537 | 32015 ft | 535 kts | 55° |
| 2026-04-21 22:23 | 34.87864 | -116.79837 | 32170 ft | 537 kts | 55° |
| 2026-04-21 22:23 | 34.90032 | -116.76121 | 32368 ft | 539 kts | 55° |
| 2026-04-21 22:23 | 34.92228 | -116.72415 | 32563 ft | 540 kts | 52° |
| 2026-04-21 22:24 | 34.94658 | -116.68910 | 32733 ft | 542 kts | 47° |
| 2026-04-21 22:24 | 34.97215 | -116.65533 | 32896 ft | 543 kts | 45° |
| 2026-04-21 22:24 | 34.99829 | -116.62195 | 33043 ft | 545 kts | 44° |
| 2026-04-21 22:24 | 35.02457 | -116.58855 | 33185 ft | 547 kts | 45° |
| 2026-04-21 22:25 | 35.05083 | -116.55488 | 33320 ft | 548 kts | 45° |
| 2026-04-21 22:25 | 35.07691 | -116.52101 | 33558 ft | 548 kts | 46° |
| 2026-04-21 22:25 | 35.10283 | -116.48696 | 33795 ft | 547 kts | 46° |
| 2026-04-21 22:25 | 35.12860 | -116.45288 | 33983 ft | 547 kts | 46° |
| 2026-04-21 22:26 | 35.15438 | -116.41865 | 34157 ft | 546 kts | 46° |
| 2026-04-21 22:26 | 35.18005 | -116.38452 | 34442 ft | 545 kts | 46° |
| 2026-04-21 22:26 | 35.20561 | -116.35052 | 34679 ft | 543 kts | 46° |
| 2026-04-21 22:26 | 35.23115 | -116.31654 | 34900 ft | 542 kts | 46° |
| 2026-04-21 22:27 | 35.25671 | -116.28253 | 34886 ft | 545 kts | 46° |
| 2026-04-21 22:27 | 35.30802 | -116.21422 | 34875 ft | 544 kts | 46° |
| 2026-04-21 22:28 | 35.35900 | -116.14620 | 34882 ft | 541 kts | 46° |
| 2026-04-21 22:28 | 35.40975 | -116.07832 | 34894 ft | 539 kts | 46° |
| 2026-04-21 22:29 | 35.46032 | -116.01058 | 34904 ft | 539 kts | 46° |
| 2026-04-21 22:29 | 35.51085 | -115.94273 | 34873 ft | 539 kts | 47° |
| 2026-04-21 22:30 | 35.56129 | -115.87486 | 34909 ft | 538 kts | 47° |
| 2026-04-21 22:30 | 35.61175 | -115.80684 | 34908 ft | 538 kts | 47° |
| 2026-04-21 22:31 | 35.66205 | -115.73863 | 34928 ft | 539 kts | 47° |
| 2026-04-21 22:31 | 35.71205 | -115.66990 | 34919 ft | 540 kts | 47° |
| 2026-04-21 22:32 | 35.76209 | -115.60086 | 34907 ft | 540 kts | 47° |
| 2026-04-21 22:32 | 35.81209 | -115.53186 | 34911 ft | 540 kts | 47° |
| 2026-04-21 22:33 | 35.86209 | -115.46280 | 34909 ft | 540 kts | 48° |
| 2026-04-21 22:33 | 35.91203 | -115.39367 | 34919 ft | 540 kts | 48° |
| 2026-04-21 22:34 | 35.96190 | -115.32447 | 34886 ft | 538 kts | 48° |
| 2026-04-21 22:34 | 36.01124 | -115.25586 | 34903 ft | 537 kts | 48° |
| 2026-04-21 22:35 | 36.06081 | -115.18682 | 34873 ft | 536 kts | 48° |
| 2026-04-21 22:35 | 36.11305 | -115.12134 | 34887 ft | 534 kts | 39° |
| 2026-04-21 22:36 | 36.19802 | -115.03231 | 34819 ft | 533 kts | 38° |
| 2026-04-21 22:36 | 36.25427 | -114.97252 | 34808 ft | 533 kts | 39° |
| 2026-04-21 22:37 | 36.31011 | -114.91204 | 34806 ft | 533 kts | 40° |
| 2026-04-21 22:37 | 36.36583 | -114.85150 | 34784 ft | 532 kts | 40° |
| 2026-04-21 22:38 | 36.42152 | -114.79103 | 34772 ft | 532 kts | 40° |
| 2026-04-21 22:38 | 36.47712 | -114.73045 | 34758 ft | 532 kts | 40° |
| 2026-04-21 22:39 | 36.53274 | -114.66965 | 34750 ft | 532 kts | 40° |
| 2026-04-21 22:39 | 36.58831 | -114.60880 | 34745 ft | 533 kts | 40° |
| 2026-04-21 22:40 | 36.64393 | -114.54777 | 34741 ft | 533 kts | 40° |
| 2026-04-21 22:40 | 36.69958 | -114.48664 | 34755 ft | 534 kts | 40° |
| 2026-04-21 22:41 | 36.75966 | -114.43289 | 34790 ft | 531 kts | 30° |
| 2026-04-21 22:41 | 36.82282 | -114.38484 | 34748 ft | 532 kts | 28° |
| 2026-04-21 22:42 | 36.88598 | -114.33670 | 34765 ft | 532 kts | 29° |
| 2026-04-21 22:42 | 36.94882 | -114.28767 | 34765 ft | 533 kts | 30° |
| 2026-04-21 22:43 | 37.01146 | -114.23821 | 34798 ft | 533 kts | 30° |
| 2026-04-21 22:43 | 37.07407 | -114.18865 | 34779 ft | 533 kts | 30° |
| 2026-04-21 22:44 | 37.13625 | -114.13940 | 34789 ft | 532 kts | 30° |
| 2026-04-21 22:44 | 37.19871 | -114.08986 | 34800 ft | 531 kts | 30° |
| 2026-04-21 22:45 | 37.26107 | -114.04032 | 34804 ft | 530 kts | 31° |
| 2026-04-21 22:45 | 37.32335 | -113.99074 | 34811 ft | 529 kts | 31° |
| 2026-04-21 22:46 | 37.38550 | -113.94117 | 34814 ft | 529 kts | 31° |
| 2026-04-21 22:46 | 37.44759 | -113.89153 | 34822 ft | 529 kts | 31° |
| 2026-04-21 22:47 | 37.50962 | -113.84184 | 34816 ft | 528 kts | 31° |
| 2026-04-21 22:47 | 37.57161 | -113.79209 | 34834 ft | 528 kts | 31° |
| 2026-04-21 22:48 | 37.63342 | -113.74238 | 34815 ft | 527 kts | 31° |
| 2026-04-21 22:48 | 37.69512 | -113.69266 | 34811 ft | 525 kts | 31° |
| 2026-04-21 22:49 | 37.75656 | -113.64305 | 34814 ft | 524 kts | 31° |
| 2026-04-21 22:49 | 37.81785 | -113.59346 | 34826 ft | 522 kts | 31° |
| 2026-04-21 22:50 | 37.87898 | -113.54390 | 34803 ft | 521 kts | 32° |
| 2026-04-21 22:50 | 37.94005 | -113.49458 | 34805 ft | 520 kts | 30° |
| 2026-04-21 22:51 | 38.00318 | -113.45007 | 34806 ft | 519 kts | 26° |
| 2026-04-21 22:51 | 38.06723 | -113.40807 | 34801 ft | 518 kts | 25° |
| 2026-04-21 22:52 | 38.13066 | -113.36607 | 34785 ft | 518 kts | 26° |
| 2026-04-21 22:52 | 38.19419 | -113.32315 | 34812 ft | 516 kts | 26° |
| 2026-04-21 22:53 | 38.25749 | -113.27998 | 34851 ft | 516 kts | 27° |
| 2026-04-21 22:53 | 38.32068 | -113.23675 | 34882 ft | 516 kts | 27° |
| 2026-04-21 22:54 | 38.38389 | -113.19349 | 34905 ft | 515 kts | 27° |
| 2026-04-21 22:54 | 38.44699 | -113.15023 | 34932 ft | 514 kts | 27° |
| 2026-04-21 22:55 | 38.50999 | -113.10697 | 34940 ft | 514 kts | 27° |
| 2026-04-21 22:55 | 38.57295 | -113.06364 | 34914 ft | 514 kts | 27° |
| 2026-04-21 22:56 | 38.63581 | -113.02030 | 34880 ft | 513 kts | 27° |
| 2026-04-21 22:56 | 38.69861 | -112.97691 | 34787 ft | 513 kts | 27° |
| 2026-04-21 22:57 | 38.76129 | -112.93351 | 34790 ft | 512 kts | 27° |
| 2026-04-21 22:57 | 38.82395 | -112.89004 | 34811 ft | 512 kts | 27° |
| 2026-04-21 22:58 | 38.88669 | -112.84643 | 34784 ft | 513 kts | 28° |
| 2026-04-21 22:58 | 38.94940 | -112.80275 | 34771 ft | 513 kts | 28° |
| 2026-04-21 22:59 | 39.01213 | -112.75897 | 34766 ft | 512 kts | 28° |
| 2026-04-21 22:59 | 39.07467 | -112.71523 | 34773 ft | 511 kts | 28° |
| 2026-04-21 23:00 | 39.13713 | -112.67146 | 34756 ft | 511 kts | 28° |
| 2026-04-21 23:00 | 39.19944 | -112.62770 | 34760 ft | 510 kts | 28° |
| 2026-04-21 23:01 | 39.26167 | -112.58391 | 34762 ft | 509 kts | 28° |
| 2026-04-21 23:01 | 39.32384 | -112.54007 | 34778 ft | 509 kts | 28° |
| 2026-04-21 23:02 | 39.38554 | -112.49648 | 34767 ft | 509 kts | 28° |
| 2026-04-21 23:02 | 39.44764 | -112.45251 | 34746 ft | 509 kts | 28° |
| 2026-04-21 23:03 | 39.50973 | -112.40847 | 34763 ft | 509 kts | 28° |
| 2026-04-21 23:03 | 39.57221 | -112.36405 | 34785 ft | 509 kts | 28° |
| 2026-04-21 23:04 | 39.63389 | -112.32011 | 34775 ft | 509 kts | 28° |
| 2026-04-21 23:04 | 39.69601 | -112.27577 | 34780 ft | 510 kts | 28° |
| 2026-04-21 23:05 | 39.75858 | -112.23101 | 34781 ft | 510 kts | 28° |
| 2026-04-21 23:05 | 39.82042 | -112.18668 | 34787 ft | 511 kts | 29° |
| 2026-04-21 23:06 | 39.88311 | -112.14165 | 34774 ft | 511 kts | 29° |
| 2026-04-21 23:06 | 39.94537 | -112.09684 | 34772 ft | 511 kts | 29° |
| 2026-04-21 23:07 | 40.00770 | -112.05187 | 34778 ft | 512 kts | 29° |
| 2026-04-21 23:07 | 40.06995 | -112.00688 | 34779 ft | 511 kts | 29° |
| 2026-04-21 23:08 | 40.13175 | -111.96211 | 34834 ft | 511 kts | 29° |
| 2026-04-21 23:08 | 40.18378 | -111.92435 | 34846 ft | 511 kts | 29° |
| 2026-04-21 23:09 | 40.25601 | -111.87181 | 34857 ft | 511 kts | 30° |
| 2026-04-21 23:09 | 40.30802 | -111.83391 | 34863 ft | 511 kts | 30° |
| 2026-04-21 23:10 | 40.37008 | -111.78859 | 34828 ft | 511 kts | 30° |
| 2026-04-21 23:10 | 40.43205 | -111.74323 | 34831 ft | 510 kts | 30° |
| 2026-04-21 23:11 | 40.49400 | -111.69782 | 34823 ft | 510 kts | 30° |
| 2026-04-21 23:11 | 40.55551 | -111.65259 | 34827 ft | 510 kts | 30° |
| 2026-04-21 23:12 | 40.61738 | -111.60703 | 34819 ft | 509 kts | 30° |
| 2026-04-21 23:12 | 40.67912 | -111.56146 | 34861 ft | 508 kts | 30° |
| 2026-04-21 23:13 | 40.74079 | -111.51584 | 34842 ft | 508 kts | 30° |
| 2026-04-21 23:13 | 40.80241 | -111.47016 | 34809 ft | 508 kts | 30° |
| 2026-04-21 23:14 | 40.86408 | -111.42435 | 34800 ft | 509 kts | 30° |
| 2026-04-21 23:14 | 40.92575 | -111.37844 | 34814 ft | 508 kts | 30° |
| 2026-04-21 23:15 | 40.98735 | -111.33249 | 34817 ft | 508 kts | 30° |
| 2026-04-21 23:15 | 41.04900 | -111.28639 | 34850 ft | 509 kts | 30° |
| 2026-04-21 23:16 | 41.11066 | -111.24018 | 34922 ft | 509 kts | 30° |
| 2026-04-21 23:16 | 41.17242 | -111.19381 | 34954 ft | 511 kts | 30° |
| 2026-04-21 23:17 | 41.23427 | -111.14726 | 35011 ft | 511 kts | 30° |
| 2026-04-21 23:17 | 41.29615 | -111.10059 | 35004 ft | 511 kts | 31° |
| 2026-04-21 23:18 | 41.35785 | -111.05395 | 35004 ft | 510 kts | 31° |
| 2026-04-21 23:18 | 41.41942 | -111.00731 | 34968 ft | 509 kts | 31° |
| 2026-04-21 23:19 | 41.48090 | -110.96063 | 34933 ft | 508 kts | 31° |
| 2026-04-21 23:19 | 41.51160 | -110.93727 | 34820 ft | 508 kts | 31° |
| 2026-04-21 23:19 | 41.54226 | -110.91394 | 34823 ft | 508 kts | 31° |
| 2026-04-21 23:20 | 41.60360 | -110.86716 | 34824 ft | 507 kts | 31° |
| 2026-04-21 23:20 | 41.66446 | -110.82064 | 34828 ft | 507 kts | 31° |
| 2026-04-21 23:21 | 41.72570 | -110.77373 | 34834 ft | 507 kts | 30° |
| 2026-04-21 23:21 | 41.78695 | -110.72671 | 34830 ft | 508 kts | 30° |
| 2026-04-21 23:22 | 41.84824 | -110.67955 | 34829 ft | 508 kts | 30° |
| 2026-04-21 23:22 | 41.90958 | -110.63225 | 34837 ft | 509 kts | 30° |
| 2026-04-21 23:23 | 41.94027 | -110.60855 | 35004 ft | 509 kts | 30° |
| 2026-04-21 23:23 | 41.97095 | -110.58483 | 35004 ft | 509 kts | 30° |
| 2026-04-21 23:23 | 42.03233 | -110.53727 | 34942 ft | 510 kts | 31° |
| 2026-04-21 23:24 | 42.09380 | -110.48956 | 34912 ft | 510 kts | 31° |
| 2026-04-21 23:24 | 42.15519 | -110.44179 | 34869 ft | 509 kts | 30° |
| 2026-04-21 23:25 | 42.21651 | -110.39397 | 34863 ft | 509 kts | 30° |
| 2026-04-21 23:25 | 42.27766 | -110.34617 | 34873 ft | 508 kts | 31° |
| 2026-04-21 23:26 | 42.33875 | -110.29831 | 34906 ft | 507 kts | 31° |
| 2026-04-21 23:26 | 42.39974 | -110.25042 | 34944 ft | 506 kts | 31° |
| 2026-04-21 23:27 | 42.46058 | -110.20253 | 34987 ft | 505 kts | 31° |
| 2026-04-21 23:27 | 42.52138 | -110.15458 | 35015 ft | 505 kts | 31° |
| 2026-04-21 23:28 | 42.57836 | -110.09980 | 35025 ft | 502 kts | 45° |
| 2026-04-21 23:28 | 42.62212 | -110.02697 | 35033 ft | 497 kts | 58° |
| 2026-04-21 23:29 | 42.66046 | -109.94875 | 34994 ft | 498 kts | 59° |
| 2026-04-21 23:29 | 42.69889 | -109.87031 | 35018 ft | 499 kts | 59° |
| 2026-04-21 23:30 | 42.73779 | -109.79188 | 35013 ft | 500 kts | 58° |
| 2026-04-21 23:30 | 42.77685 | -109.71346 | 35029 ft | 501 kts | 58° |
| 2026-04-21 23:31 | 42.79638 | -109.67419 | 34880 ft | 501 kts | 58° |
| 2026-04-21 23:31 | 42.81592 | -109.63485 | 34895 ft | 502 kts | 58° |
| 2026-04-21 23:31 | 42.85500 | -109.55597 | 34906 ft | 502 kts | 58° |
| 2026-04-21 23:32 | 42.89404 | -109.47691 | 34910 ft | 502 kts | 58° |
| 2026-04-21 23:32 | 42.93299 | -109.39782 | 34905 ft | 502 kts | 58° |
| 2026-04-21 23:33 | 42.97155 | -109.31933 | 34888 ft | 501 kts | 58° |
| 2026-04-21 23:33 | 43.01054 | -109.23973 | 34854 ft | 501 kts | 58° |
| 2026-04-21 23:34 | 43.04892 | -109.16116 | 34859 ft | 500 kts | 58° |
| 2026-04-21 23:34 | 43.08746 | -109.08207 | 34790 ft | 499 kts | 58° |
| 2026-04-21 23:35 | 43.12586 | -109.00305 | 34802 ft | 499 kts | 58° |
| 2026-04-21 23:35 | 43.16425 | -108.92385 | 34771 ft | 499 kts | 58° |
| 2026-04-21 23:36 | 43.20265 | -108.84441 | 34763 ft | 500 kts | 58° |
| 2026-04-21 23:36 | 43.24107 | -108.76470 | 34753 ft | 501 kts | 58° |
| 2026-04-21 23:37 | 43.27947 | -108.68483 | 34815 ft | 502 kts | 58° |
| 2026-04-21 23:37 | 43.31783 | -108.60482 | 34824 ft | 502 kts | 58° |
| 2026-04-21 23:38 | 43.35615 | -108.52467 | 34811 ft | 502 kts | 58° |
| 2026-04-21 23:38 | 43.39443 | -108.44439 | 34789 ft | 502 kts | 58° |
| 2026-04-21 23:39 | 43.43263 | -108.36407 | 34777 ft | 502 kts | 58° |
| 2026-04-21 23:39 | 43.47192 | -108.28468 | 34769 ft | 503 kts | 50° |
| 2026-04-21 23:40 | 43.51898 | -108.21367 | 34778 ft | 502 kts | 46° |
| 2026-04-21 23:40 | 43.56729 | -108.14421 | 34795 ft | 501 kts | 46° |
| 2026-04-21 23:41 | 43.61520 | -108.07434 | 34837 ft | 501 kts | 47° |
| 2026-04-21 23:41 | 43.66272 | -108.00383 | 34819 ft | 502 kts | 47° |
| 2026-04-21 23:42 | 43.71011 | -107.93296 | 34821 ft | 502 kts | 47° |
| 2026-04-21 23:42 | 43.75742 | -107.86200 | 34829 ft | 502 kts | 47° |
| 2026-04-21 23:43 | 43.80471 | -107.79097 | 34810 ft | 502 kts | 47° |
| 2026-04-21 23:43 | 43.85203 | -107.71973 | 34801 ft | 502 kts | 47° |
| 2026-04-21 23:44 | 43.89933 | -107.64836 | 34807 ft | 502 kts | 47° |
| 2026-04-21 23:44 | 43.94660 | -107.57685 | 34789 ft | 503 kts | 47° |
| 2026-04-21 23:45 | 44.01711 | -107.46983 | 34817 ft | 503 kts | 47° |
| 2026-04-21 23:46 | 44.06433 | -107.39795 | 34856 ft | 504 kts | 47° |
| 2026-04-21 23:46 | 44.11154 | -107.32589 | 34844 ft | 504 kts | 47° |
| 2026-04-21 23:47 | 44.15877 | -107.25361 | 34864 ft | 505 kts | 47° |
| 2026-04-21 23:47 | 44.20596 | -107.18121 | 34883 ft | 505 kts | 47° |
| 2026-04-21 23:48 | 44.25314 | -107.10864 | 34891 ft | 505 kts | 47° |
| 2026-04-21 23:48 | 44.30026 | -107.03598 | 34881 ft | 505 kts | 47° |
| 2026-04-21 23:49 | 44.34728 | -106.96327 | 34834 ft | 504 kts | 47° |
| 2026-04-21 23:49 | 44.39423 | -106.89049 | 34825 ft | 504 kts | 47° |
| 2026-04-21 23:50 | 44.44111 | -106.81763 | 34911 ft | 504 kts | 47° |
| 2026-04-21 23:50 | 44.48793 | -106.74468 | 34878 ft | 503 kts | 47° |
| 2026-04-21 23:51 | 44.53463 | -106.67172 | 34867 ft | 503 kts | 47° |
| 2026-04-21 23:51 | 44.58124 | -106.59872 | 34848 ft | 501 kts | 47° |
| 2026-04-21 23:52 | 44.62766 | -106.52582 | 34807 ft | 500 kts | 47° |
| 2026-04-21 23:52 | 44.67395 | -106.45294 | 34780 ft | 499 kts | 47° |
| 2026-04-21 23:53 | 44.72010 | -106.38009 | 34781 ft | 499 kts | 47° |
| 2026-04-21 23:53 | 44.76615 | -106.30720 | 34781 ft | 498 kts | 47° |
| 2026-04-21 23:54 | 44.81214 | -106.23423 | 34797 ft | 498 kts | 47° |
| 2026-04-21 23:54 | 44.85803 | -106.16122 | 34790 ft | 498 kts | 46° |
| 2026-04-21 23:55 | 44.89616 | -106.10041 | 34787 ft | 498 kts | 46° |
| 2026-04-21 23:55 | 44.94202 | -106.02710 | 34797 ft | 498 kts | 46° |
| 2026-04-21 23:56 | 44.98786 | -105.95364 | 34796 ft | 499 kts | 46° |
| 2026-04-21 23:56 | 45.03366 | -105.88004 | 34794 ft | 499 kts | 46° |
| 2026-04-21 23:57 | 45.07949 | -105.80618 | 34815 ft | 500 kts | 46° |
| 2026-04-21 23:57 | 45.12535 | -105.73211 | 34801 ft | 500 kts | 46° |
| 2026-04-21 23:58 | 45.17115 | -105.65792 | 34804 ft | 500 kts | 46° |
| 2026-04-21 23:58 | 45.21696 | -105.58352 | 34805 ft | 501 kts | 47° |
| 2026-04-21 23:59 | 45.26271 | -105.50902 | 34800 ft | 501 kts | 46° |
| 2026-04-21 23:59 | 45.30841 | -105.43440 | 34803 ft | 501 kts | 46° |
| 2026-04-22 00:00 | 45.35401 | -105.35974 | 34808 ft | 500 kts | 46° |
| 2026-04-22 00:00 | 45.39958 | -105.28494 | 34802 ft | 500 kts | 46° |
| 2026-04-22 00:01 | 45.44504 | -105.21010 | 34811 ft | 499 kts | 47° |
| 2026-04-22 00:01 | 45.49038 | -105.13528 | 34804 ft | 499 kts | 47° |
| 2026-04-22 00:02 | 45.53567 | -105.06033 | 34811 ft | 498 kts | 47° |
| 2026-04-22 00:02 | 45.58085 | -104.98536 | 34829 ft | 498 kts | 47° |
| 2026-04-22 00:03 | 45.62596 | -104.91031 | 34821 ft | 498 kts | 46° |
| 2026-04-22 00:03 | 45.67104 | -104.83511 | 34825 ft | 498 kts | 46° |
| 2026-04-22 00:04 | 45.71604 | -104.75983 | 34821 ft | 498 kts | 46° |
| 2026-04-22 00:04 | 45.76072 | -104.68489 | 34827 ft | 498 kts | 46° |
| 2026-04-22 00:05 | 45.80567 | -104.60928 | 34829 ft | 498 kts | 46° |
| 2026-04-22 00:05 | 45.85057 | -104.53357 | 34830 ft | 499 kts | 46° |
| 2026-04-22 00:06 | 45.89548 | -104.45762 | 34833 ft | 499 kts | 46° |
| 2026-04-22 00:06 | 45.94034 | -104.38154 | 34830 ft | 499 kts | 46° |
| 2026-04-22 00:07 | 45.98514 | -104.30536 | 34834 ft | 499 kts | 46° |
| 2026-04-22 00:07 | 46.02991 | -104.22902 | 34834 ft | 499 kts | 46° |
| 2026-04-22 00:08 | 46.07463 | -104.15257 | 34842 ft | 499 kts | 46° |
| 2026-04-22 00:08 | 46.11928 | -104.07602 | 34847 ft | 499 kts | 46° |
| 2026-04-22 00:09 | 46.16389 | -103.99931 | 34833 ft | 499 kts | 46° |
| 2026-04-22 00:09 | 46.20839 | -103.92260 | 34817 ft | 498 kts | 46° |
| 2026-04-22 00:10 | 46.25280 | -103.84581 | 34822 ft | 498 kts | 46° |
| 2026-04-22 00:10 | 46.29713 | -103.76896 | 34824 ft | 498 kts | 46° |
| 2026-04-22 00:11 | 46.34138 | -103.69204 | 34827 ft | 497 kts | 46° |
| 2026-04-22 00:11 | 46.38559 | -103.61497 | 34826 ft | 497 kts | 46° |
| 2026-04-22 00:12 | 46.42976 | -103.53776 | 34811 ft | 497 kts | 46° |
| 2026-04-22 00:12 | 46.47387 | -103.46043 | 34812 ft | 497 kts | 46° |
| 2026-04-22 00:13 | 46.51793 | -103.38296 | 34810 ft | 498 kts | 46° |
| 2026-04-22 00:13 | 46.56197 | -103.30533 | 34807 ft | 498 kts | 46° |
| 2026-04-22 00:14 | 46.60600 | -103.22748 | 34807 ft | 498 kts | 46° |
| 2026-04-22 00:14 | 46.64993 | -103.14959 | 34807 ft | 498 kts | 46° |
| 2026-04-22 00:15 | 46.69388 | -103.07145 | 34820 ft | 499 kts | 46° |
| 2026-04-22 00:15 | 46.73777 | -102.99319 | 34819 ft | 499 kts | 46° |
| 2026-04-22 00:16 | 46.78165 | -102.91472 | 34822 ft | 499 kts | 46° |
| 2026-04-22 00:16 | 46.82572 | -102.83567 | 34826 ft | 499 kts | 46° |
| 2026-04-22 00:17 | 46.86921 | -102.75744 | 34824 ft | 499 kts | 46° |
| 2026-04-22 00:17 | 46.91271 | -102.67828 | 34819 ft | 500 kts | 46° |
| 2026-04-22 00:18 | 46.95605 | -102.59889 | 34819 ft | 499 kts | 46° |
| 2026-04-22 00:18 | 46.99935 | -102.51939 | 34812 ft | 499 kts | 46° |
| 2026-04-22 00:19 | 47.04259 | -102.43983 | 34801 ft | 499 kts | 46° |
| 2026-04-22 00:19 | 47.08578 | -102.36018 | 34812 ft | 499 kts | 46° |
| 2026-04-22 00:20 | 47.12890 | -102.28041 | 34803 ft | 499 kts | 46° |
| 2026-04-22 00:20 | 47.17193 | -102.20058 | 34800 ft | 498 kts | 46° |
| 2026-04-22 00:21 | 47.21489 | -102.12066 | 34799 ft | 498 kts | 47° |
| 2026-04-22 00:21 | 47.25775 | -102.04066 | 34802 ft | 498 kts | 47° |
| 2026-04-22 00:22 | 47.30054 | -101.96058 | 34813 ft | 497 kts | 47° |
| 2026-04-22 00:22 | 47.34327 | -101.88038 | 34816 ft | 497 kts | 47° |
| 2026-04-22 00:23 | 47.38594 | -101.80006 | 34815 ft | 497 kts | 47° |
| 2026-04-22 00:23 | 47.42855 | -101.71961 | 34845 ft | 498 kts | 47° |
| 2026-04-22 00:24 | 47.47114 | -101.63897 | 34822 ft | 498 kts | 47° |
| 2026-04-22 00:24 | 47.51363 | -101.55826 | 34816 ft | 497 kts | 47° |
| 2026-04-22 00:25 | 47.55602 | -101.47752 | 34814 ft | 496 kts | 47° |
| 2026-04-22 00:25 | 47.59830 | -101.39674 | 34816 ft | 496 kts | 47° |
| 2026-04-22 00:26 | 47.64045 | -101.31596 | 34822 ft | 496 kts | 47° |
| 2026-04-22 00:26 | 47.68260 | -101.23497 | 34825 ft | 495 kts | 47° |
| 2026-04-22 00:27 | 47.72461 | -101.15399 | 34815 ft | 495 kts | 47° |
| 2026-04-22 00:27 | 47.76649 | -101.07302 | 34823 ft | 494 kts | 47° |
| 2026-04-22 00:28 | 47.80828 | -100.99199 | 34825 ft | 493 kts | 47° |
| 2026-04-22 00:28 | 47.84998 | -100.91089 | 34809 ft | 493 kts | 47° |
| 2026-04-22 00:29 | 47.89154 | -100.82982 | 34812 ft | 492 kts | 47° |
| 2026-04-22 00:29 | 47.93299 | -100.74874 | 34813 ft | 492 kts | 47° |
| 2026-04-22 00:30 | 47.97437 | -100.66755 | 34828 ft | 492 kts | 47° |
| 2026-04-22 00:30 | 48.01565 | -100.58631 | 34836 ft | 491 kts | 47° |
| 2026-04-22 00:31 | 48.05686 | -100.50495 | 34830 ft | 490 kts | 47° |
| 2026-04-22 00:31 | 48.09796 | -100.42357 | 34834 ft | 490 kts | 47° |
| 2026-04-22 00:32 | 48.13896 | -100.34216 | 34832 ft | 490 kts | 48° |
| 2026-04-22 00:32 | 48.17988 | -100.26065 | 34849 ft | 489 kts | 47° |
| 2026-04-22 00:33 | 48.22074 | -100.17904 | 34835 ft | 490 kts | 47° |
| 2026-04-22 00:33 | 48.26161 | -100.09714 | 34833 ft | 490 kts | 47° |
| 2026-04-22 00:34 | 48.30241 | -100.01514 | 34823 ft | 490 kts | 48° |
| 2026-04-22 00:34 | 48.34314 | -99.93302 | 34824 ft | 490 kts | 48° |
| 2026-04-22 00:35 | 48.38384 | -99.85072 | 34830 ft | 491 kts | 47° |
| 2026-04-22 00:35 | 48.42425 | -99.76875 | 34840 ft | 491 kts | 47° |
| 2026-04-22 00:36 | 48.46485 | -99.68615 | 34854 ft | 491 kts | 48° |
| 2026-04-22 00:36 | 48.50543 | -99.60334 | 34873 ft | 491 kts | 48° |
| 2026-04-22 00:37 | 48.54593 | -99.52044 | 34903 ft | 491 kts | 47° |
| 2026-04-22 00:37 | 48.58636 | -99.43741 | 34890 ft | 491 kts | 48° |
| 2026-04-22 00:38 | 48.62669 | -99.35434 | 34895 ft | 490 kts | 48° |
| 2026-04-22 00:38 | 48.66695 | -99.27118 | 34896 ft | 490 kts | 48° |
| 2026-04-22 00:39 | 48.70063 | -99.20140 | 34904 ft | 490 kts | 48° |
| 2026-04-22 00:39 | 48.74078 | -99.11799 | 34908 ft | 491 kts | 47° |
| 2026-04-22 00:40 | 48.78095 | -99.03427 | 34919 ft | 491 kts | 47° |
| 2026-04-22 00:40 | 48.82105 | -98.95042 | 34911 ft | 491 kts | 47° |
| 2026-04-22 00:41 | 48.86105 | -98.86653 | 34913 ft | 491 kts | 47° |
| 2026-04-22 00:41 | 48.90102 | -98.78245 | 34933 ft | 491 kts | 47° |
| 2026-04-22 00:42 | 48.94093 | -98.69822 | 34916 ft | 491 kts | 47° |
| 2026-04-22 00:42 | 48.98080 | -98.61382 | 34910 ft | 491 kts | 47° |
| 2026-04-22 00:43 | 49.02059 | -98.52933 | 34918 ft | 491 kts | 47° |
| 2026-04-22 00:43 | 49.06036 | -98.44459 | 34909 ft | 491 kts | 47° |
| 2026-04-22 00:44 | 49.10007 | -98.35974 | 34899 ft | 491 kts | 47° |
| 2026-04-22 00:44 | 49.13945 | -98.27529 | 34899 ft | 491 kts | 47° |
| 2026-04-22 00:45 | 49.17902 | -98.19019 | 34903 ft | 492 kts | 47° |
| 2026-04-22 00:45 | 49.21857 | -98.10488 | 34901 ft | 492 kts | 48° |
| 2026-04-22 00:46 | 49.25806 | -98.01941 | 34907 ft | 492 kts | 47° |
| 2026-04-22 00:46 | 49.29757 | -97.93362 | 34903 ft | 493 kts | 47° |
| 2026-04-22 00:47 | 49.33704 | -97.84764 | 34906 ft | 494 kts | 47° |
| 2026-04-22 00:47 | 49.37652 | -97.76135 | 34899 ft | 494 kts | 47° |
| 2026-04-22 00:48 | 49.41591 | -97.67498 | 34908 ft | 494 kts | 47° |
| 2026-04-22 00:48 | 49.45524 | -97.58847 | 34932 ft | 494 kts | 47° |
| 2026-04-22 00:49 | 49.49458 | -97.50167 | 34920 ft | 495 kts | 47° |
| 2026-04-22 00:49 | 49.53384 | -97.41473 | 34912 ft | 495 kts | 47° |
| 2026-04-22 00:50 | 49.57308 | -97.32758 | 34909 ft | 495 kts | 47° |
| 2026-04-22 00:50 | 49.61225 | -97.24027 | 34911 ft | 495 kts | 47° |
| 2026-04-22 00:51 | 49.65131 | -97.15294 | 34921 ft | 494 kts | 47° |
| 2026-04-22 00:51 | 49.69028 | -97.06552 | 34905 ft | 494 kts | 47° |
| 2026-04-22 00:52 | 49.72910 | -96.97815 | 34911 ft | 493 kts | 47° |
| 2026-04-22 00:52 | 49.76783 | -96.89068 | 34941 ft | 493 kts | 47° |
| 2026-04-22 00:53 | 49.80650 | -96.80310 | 34927 ft | 493 kts | 47° |
| 2026-04-22 00:53 | 49.84514 | -96.71527 | 34934 ft | 493 kts | 46° |
| 2026-04-22 00:54 | 49.88370 | -96.62732 | 34933 ft | 493 kts | 46° |
| 2026-04-22 00:54 | 49.92221 | -96.53922 | 34940 ft | 493 kts | 47° |
| 2026-04-22 00:55 | 49.96065 | -96.45096 | 34938 ft | 493 kts | 47° |
| 2026-04-22 00:55 | 50.01819 | -96.31829 | 34951 ft | 493 kts | 46° |
| 2026-04-22 00:56 | 50.05651 | -96.22960 | 34948 ft | 494 kts | 46° |
| 2026-04-22 00:56 | 50.09473 | -96.14082 | 34954 ft | 494 kts | 46° |
| 2026-04-22 00:57 | 50.13289 | -96.05185 | 34953 ft | 494 kts | 46° |
| 2026-04-22 00:57 | 50.17098 | -95.96278 | 34987 ft | 494 kts | 46° |
| 2026-04-22 00:58 | 50.20899 | -95.87358 | 34968 ft | 493 kts | 46° |
| 2026-04-22 00:58 | 50.24692 | -95.78428 | 34965 ft | 493 kts | 46° |
| 2026-04-22 00:59 | 50.28474 | -95.69491 | 35019 ft | 493 kts | 46° |
| 2026-04-22 00:59 | 50.32252 | -95.60538 | 34985 ft | 493 kts | 46° |
| 2026-04-22 01:00 | 50.36002 | -95.51617 | 35017 ft | 493 kts | 46° |
| 2026-04-22 01:00 | 50.39791 | -95.42573 | 34995 ft | 493 kts | 46° |
| 2026-04-22 01:01 | 50.43543 | -95.33585 | 34999 ft | 492 kts | 46° |
| 2026-04-22 01:01 | 50.47261 | -95.24650 | 35005 ft | 492 kts | 46° |
| 2026-04-22 01:02 | 50.50996 | -95.15644 | 35019 ft | 492 kts | 46° |
| 2026-04-22 01:02 | 50.54720 | -95.06632 | 35070 ft | 492 kts | 46° |
| 2026-04-22 01:03 | 50.58446 | -94.97586 | 35033 ft | 492 kts | 47° |
| 2026-04-22 01:03 | 50.62161 | -94.88533 | 35030 ft | 492 kts | 47° |
| 2026-04-22 01:04 | 50.65870 | -94.79463 | 35028 ft | 492 kts | 47° |
| 2026-04-22 01:04 | 50.69573 | -94.70377 | 35034 ft | 492 kts | 47° |
| 2026-04-22 01:05 | 50.73267 | -94.61282 | 35042 ft | 493 kts | 47° |
| 2026-04-22 01:05 | 50.76954 | -94.52171 | 35042 ft | 492 kts | 47° |
| 2026-04-22 01:06 | 50.80635 | -94.43044 | 35066 ft | 492 kts | 47° |
| 2026-04-22 01:06 | 50.84309 | -94.33902 | 35041 ft | 492 kts | 47° |
| 2026-04-22 01:07 | 50.87974 | -94.24750 | 35031 ft | 492 kts | 47° |
| 2026-04-22 01:07 | 50.91628 | -94.15593 | 35031 ft | 491 kts | 47° |
| 2026-04-22 01:08 | 50.95273 | -94.06427 | 35010 ft | 491 kts | 47° |
| 2026-04-22 01:08 | 50.98911 | -93.97245 | 35000 ft | 491 kts | 47° |
| 2026-04-22 01:09 | 51.02544 | -93.88044 | 34994 ft | 492 kts | 47° |
| 2026-04-22 01:09 | 51.06168 | -93.78835 | 34988 ft | 492 kts | 47° |
| 2026-04-22 01:10 | 51.09551 | -93.69273 | 35042 ft | 500 kts | 53° |
| 2026-04-22 01:10 | 51.12635 | -93.59336 | 35030 ft | 501 kts | 54° |
| 2026-04-22 01:11 | 51.15685 | -93.49362 | 35028 ft | 501 kts | 54° |
| 2026-04-22 01:11 | 51.18761 | -93.39412 | 35023 ft | 500 kts | 53° |
| 2026-04-22 01:12 | 51.21848 | -93.29483 | 35039 ft | 500 kts | 53° |
| 2026-04-22 01:12 | 51.24934 | -93.19545 | 35017 ft | 499 kts | 54° |
| 2026-04-22 01:13 | 51.28005 | -93.09610 | 35015 ft | 499 kts | 54° |
| 2026-04-22 01:13 | 51.31066 | -92.99660 | 35037 ft | 499 kts | 54° |
| 2026-04-22 01:14 | 51.34121 | -92.89688 | 35031 ft | 499 kts | 54° |
| 2026-04-22 01:14 | 51.37168 | -92.79698 | 35024 ft | 499 kts | 54° |
| 2026-04-22 01:15 | 51.40201 | -92.69710 | 35025 ft | 499 kts | 54° |
| 2026-04-22 01:15 | 51.43225 | -92.59714 | 35020 ft | 498 kts | 54° |
| 2026-04-22 01:16 | 51.46236 | -92.49721 | 35019 ft | 498 kts | 54° |
| 2026-04-22 01:16 | 51.49238 | -92.39714 | 35060 ft | 498 kts | 54° |
| 2026-04-22 01:17 | 51.52235 | -92.29688 | 35026 ft | 498 kts | 54° |
| 2026-04-22 01:17 | 51.55218 | -92.19660 | 35020 ft | 498 kts | 54° |
| 2026-04-22 01:18 | 51.58197 | -92.09608 | 35033 ft | 498 kts | 54° |
| 2026-04-22 01:18 | 51.61169 | -91.99537 | 35031 ft | 498 kts | 54° |
| 2026-04-22 01:19 | 51.64132 | -91.89452 | 35042 ft | 499 kts | 55° |
| 2026-04-22 01:19 | 51.67087 | -91.79350 | 35028 ft | 498 kts | 55° |
| 2026-04-22 01:20 | 51.70032 | -91.69240 | 35026 ft | 498 kts | 55° |
| 2026-04-22 01:20 | 51.72967 | -91.59122 | 35030 ft | 498 kts | 55° |
| 2026-04-22 01:21 | 51.75875 | -91.49057 | 35033 ft | 498 kts | 55° |
| 2026-04-22 01:21 | 51.78792 | -91.38916 | 35039 ft | 498 kts | 55° |
| 2026-04-22 01:22 | 51.81701 | -91.28761 | 35040 ft | 499 kts | 55° |
| 2026-04-22 01:22 | 51.84134 | -91.20231 | 35044 ft | 498 kts | 55° |
| 2026-04-22 01:23 | 51.87028 | -91.10048 | 35029 ft | 498 kts | 55° |
| 2026-04-22 01:23 | 51.89912 | -90.99850 | 35033 ft | 498 kts | 55° |
| 2026-04-22 01:24 | 51.92787 | -90.89646 | 35038 ft | 498 kts | 56° |
| 2026-04-22 01:24 | 51.95653 | -90.79428 | 35043 ft | 498 kts | 56° |
| 2026-04-22 01:25 | 51.98507 | -90.69207 | 35028 ft | 498 kts | 56° |
| 2026-04-22 01:25 | 52.01351 | -90.58977 | 35034 ft | 497 kts | 56° |
| 2026-04-22 01:26 | 52.04169 | -90.48798 | 35051 ft | 497 kts | 56° |
| 2026-04-22 01:26 | 52.07002 | -90.38523 | 35048 ft | 499 kts | 56° |
| 2026-04-22 01:27 | 52.09827 | -90.28227 | 35046 ft | 499 kts | 56° |
| 2026-04-22 01:27 | 52.12644 | -90.17910 | 35032 ft | 499 kts | 56° |
| 2026-04-22 01:28 | 52.15452 | -90.07583 | 35040 ft | 499 kts | 56° |
| 2026-04-22 01:28 | 52.18252 | -89.97240 | 35050 ft | 499 kts | 56° |
| 2026-04-22 01:29 | 52.21046 | -89.86875 | 35034 ft | 499 kts | 56° |
| 2026-04-22 01:29 | 52.23829 | -89.76500 | 35038 ft | 499 kts | 56° |
| 2026-04-22 01:30 | 52.26606 | -89.66104 | 35037 ft | 500 kts | 56° |
| 2026-04-22 01:30 | 52.29375 | -89.55691 | 35074 ft | 500 kts | 56° |
| 2026-04-22 01:31 | 52.32144 | -89.45232 | 35046 ft | 501 kts | 56° |
| 2026-04-22 01:31 | 52.34904 | -89.34754 | 35033 ft | 502 kts | 56° |
| 2026-04-22 01:32 | 52.37654 | -89.24262 | 35033 ft | 502 kts | 56° |
| 2026-04-22 01:32 | 52.40396 | -89.13757 | 35031 ft | 502 kts | 56° |
| 2026-04-22 01:33 | 52.43128 | -89.03242 | 35029 ft | 502 kts | 57° |
| 2026-04-22 01:33 | 52.45854 | -88.92700 | 35033 ft | 502 kts | 57° |
| 2026-04-22 01:34 | 52.48568 | -88.82157 | 35029 ft | 502 kts | 57° |
| 2026-04-22 01:34 | 52.51270 | -88.71608 | 35031 ft | 501 kts | 57° |
| 2026-04-22 01:35 | 52.53963 | -88.61049 | 35035 ft | 502 kts | 57° |
| 2026-04-22 01:35 | 52.56650 | -88.50467 | 35027 ft | 502 kts | 57° |
| 2026-04-22 01:36 | 52.59328 | -88.39867 | 35020 ft | 502 kts | 58° |
| 2026-04-22 01:36 | 52.61994 | -88.29256 | 35028 ft | 502 kts | 58° |
| 2026-04-22 01:37 | 52.64652 | -88.18629 | 35024 ft | 502 kts | 58° |
| 2026-04-22 01:37 | 52.67297 | -88.08003 | 35025 ft | 501 kts | 58° |
| 2026-04-22 01:38 | 52.69916 | -87.97435 | 35067 ft | 501 kts | 58° |
| 2026-04-22 01:38 | 52.72546 | -87.86774 | 35038 ft | 502 kts | 59° |
| 2026-04-22 01:39 | 52.75184 | -87.76025 | 35072 ft | 502 kts | 59° |
| 2026-04-22 01:39 | 52.77800 | -87.65317 | 35041 ft | 503 kts | 59° |
| 2026-04-22 01:40 | 52.80404 | -87.54596 | 35031 ft | 503 kts | 59° |
| 2026-04-22 01:40 | 52.83001 | -87.43859 | 35045 ft | 503 kts | 59° |
| 2026-04-22 01:41 | 52.85589 | -87.33103 | 35036 ft | 503 kts | 59° |
| 2026-04-22 01:41 | 52.88164 | -87.22347 | 35024 ft | 503 kts | 59° |
| 2026-04-22 01:42 | 52.90733 | -87.11567 | 35031 ft | 503 kts | 60° |
| 2026-04-22 01:42 | 52.93272 | -87.00854 | 35031 ft | 503 kts | 60° |
| 2026-04-22 01:43 | 52.95822 | -86.90049 | 35035 ft | 503 kts | 60° |
| 2026-04-22 01:43 | 52.98362 | -86.79228 | 35035 ft | 504 kts | 61° |
| 2026-04-22 01:44 | 53.00894 | -86.68385 | 35033 ft | 503 kts | 61° |
| 2026-04-22 01:44 | 53.03410 | -86.57553 | 35024 ft | 503 kts | 61° |
| 2026-04-22 01:45 | 53.05915 | -86.46714 | 35030 ft | 502 kts | 61° |
| 2026-04-22 01:45 | 53.08412 | -86.35860 | 35036 ft | 502 kts | 62° |
| 2026-04-22 01:46 | 53.10898 | -86.24996 | 35028 ft | 502 kts | 62° |
| 2026-04-22 01:46 | 53.13372 | -86.14129 | 35027 ft | 502 kts | 62° |
| 2026-04-22 01:47 | 53.15837 | -86.03245 | 35025 ft | 502 kts | 62° |
| 2026-04-22 01:47 | 53.18292 | -85.92345 | 35059 ft | 502 kts | 62° |
| 2026-04-22 01:48 | 53.20743 | -85.81418 | 35026 ft | 504 kts | 63° |
| 2026-04-22 01:48 | 53.23183 | -85.70470 | 35028 ft | 503 kts | 63° |
| 2026-04-22 01:49 | 53.25611 | -85.59520 | 35023 ft | 503 kts | 63° |
| 2026-04-22 01:49 | 53.28028 | -85.48562 | 35025 ft | 503 kts | 63° |
| 2026-04-22 01:50 | 53.30436 | -85.37591 | 35048 ft | 503 kts | 63° |
| 2026-04-22 01:50 | 53.32834 | -85.26606 | 35027 ft | 503 kts | 64° |
| 2026-04-22 01:51 | 53.35218 | -85.15623 | 35019 ft | 502 kts | 64° |
| 2026-04-22 01:51 | 53.37593 | -85.04626 | 35020 ft | 502 kts | 64° |
| 2026-04-22 01:52 | 53.39955 | -84.93631 | 35018 ft | 502 kts | 64° |
| 2026-04-22 01:52 | 53.42310 | -84.82612 | 35037 ft | 502 kts | 64° |
| 2026-04-22 01:53 | 53.44651 | -84.71592 | 35024 ft | 502 kts | 64° |
| 2026-04-22 01:53 | 53.46983 | -84.60562 | 35017 ft | 501 kts | 64° |
| 2026-04-22 01:54 | 53.49304 | -84.49520 | 35018 ft | 501 kts | 64° |
| 2026-04-22 01:54 | 53.51611 | -84.38480 | 35016 ft | 501 kts | 64° |
| 2026-04-22 01:55 | 53.53909 | -84.27427 | 35016 ft | 501 kts | 65° |
| 2026-04-22 01:55 | 53.56198 | -84.16356 | 35014 ft | 501 kts | 65° |
| 2026-04-22 01:56 | 53.58479 | -84.05264 | 35011 ft | 501 kts | 65° |
| 2026-04-22 01:56 | 53.60749 | -83.94162 | 35017 ft | 502 kts | 65° |
| 2026-04-22 01:57 | 53.63008 | -83.83050 | 35013 ft | 501 kts | 65° |
| 2026-04-22 01:57 | 53.65255 | -83.71932 | 35023 ft | 501 kts | 66° |
| 2026-04-22 01:58 | 53.67490 | -83.60810 | 35003 ft | 500 kts | 66° |
| 2026-04-22 01:58 | 53.69712 | -83.49694 | 35001 ft | 500 kts | 66° |
| 2026-04-22 01:59 | 53.71921 | -83.38580 | 35008 ft | 499 kts | 66° |
| 2026-04-22 01:59 | 53.74120 | -83.27452 | 35011 ft | 499 kts | 66° |
| 2026-04-22 02:00 | 53.76306 | -83.16328 | 35027 ft | 499 kts | 66° |
| 2026-04-22 02:00 | 53.78483 | -83.05182 | 35017 ft | 499 kts | 66° |
| 2026-04-22 02:01 | 53.80646 | -82.94048 | 35017 ft | 498 kts | 67° |
| 2026-04-22 02:01 | 53.82783 | -82.82978 | 35015 ft | 498 kts | 67° |
| 2026-04-22 02:02 | 53.84936 | -82.71763 | 35017 ft | 497 kts | 67° |
| 2026-04-22 02:02 | 53.87062 | -82.60629 | 35034 ft | 497 kts | 68° |
| 2026-04-22 02:03 | 53.89175 | -82.49489 | 35022 ft | 496 kts | 68° |
| 2026-04-22 02:03 | 53.91278 | -82.38340 | 35027 ft | 496 kts | 68° |
| 2026-04-22 02:04 | 53.94410 | -82.21614 | 35026 ft | 496 kts | 68° |
| 2026-04-22 02:05 | 53.96134 | -82.12342 | 35031 ft | 496 kts | 68° |
| 2026-04-22 02:05 | 53.98534 | -81.99358 | 35055 ft | 495 kts | 69° |
| 2026-04-22 02:06 | 54.00253 | -81.89996 | 35036 ft | 495 kts | 69° |
| 2026-04-22 02:06 | 54.02292 | -81.78834 | 35029 ft | 494 kts | 69° |
| 2026-04-22 02:07 | 54.04319 | -81.67675 | 35031 ft | 493 kts | 69° |
| 2026-04-22 02:07 | 54.06332 | -81.56521 | 35027 ft | 493 kts | 69° |
| 2026-04-22 02:08 | 54.08334 | -81.45360 | 35032 ft | 493 kts | 69° |
| 2026-04-22 02:08 | 54.10326 | -81.34190 | 35022 ft | 492 kts | 70° |
| 2026-04-22 02:09 | 54.12303 | -81.23028 | 35020 ft | 492 kts | 70° |
| 2026-04-22 02:09 | 54.14258 | -81.11931 | 35022 ft | 492 kts | 70° |
| 2026-04-22 02:10 | 54.16215 | -81.00749 | 35021 ft | 492 kts | 70° |
| 2026-04-22 02:10 | 54.18175 | -80.89483 | 35024 ft | 492 kts | 70° |
| 2026-04-22 02:11 | 54.20111 | -80.78279 | 35005 ft | 492 kts | 71° |
| 2026-04-22 02:11 | 54.22022 | -80.67151 | 35008 ft | 491 kts | 71° |
| 2026-04-22 02:12 | 54.23933 | -80.55952 | 35004 ft | 491 kts | 71° |
| 2026-04-22 02:12 | 54.25834 | -80.44741 | 35005 ft | 491 kts | 71° |
| 2026-04-22 02:13 | 54.27725 | -80.33520 | 35001 ft | 491 kts | 71° |
| 2026-04-22 02:13 | 54.29604 | -80.22294 | 34990 ft | 491 kts | 71° |
| 2026-04-22 02:14 | 54.31474 | -80.11054 | 34990 ft | 491 kts | 71° |
| 2026-04-22 02:14 | 54.33348 | -79.99820 | 34986 ft | 490 kts | 69° |
| 2026-04-22 02:15 | 54.35812 | -79.88984 | 34991 ft | 488 kts | 64° |
| 2026-04-22 02:15 | 54.38518 | -79.78324 | 34988 ft | 487 kts | 64° |
| 2026-04-22 02:16 | 54.41200 | -79.67642 | 34980 ft | 487 kts | 64° |
| 2026-04-22 02:16 | 54.43826 | -79.56909 | 34979 ft | 487 kts | 65° |
| 2026-04-22 02:17 | 54.46421 | -79.46144 | 34978 ft | 487 kts | 65° |
| 2026-04-22 02:17 | 54.49001 | -79.35369 | 34976 ft | 487 kts | 65° |
| 2026-04-22 02:18 | 54.51576 | -79.24574 | 34972 ft | 487 kts | 65° |
| 2026-04-22 02:18 | 54.54142 | -79.13770 | 34982 ft | 488 kts | 66° |
| 2026-04-22 02:19 | 54.56699 | -79.02951 | 34973 ft | 488 kts | 66° |
| 2026-04-22 02:19 | 54.59247 | -78.92114 | 34971 ft | 488 kts | 66° |
| 2026-04-22 02:20 | 54.61783 | -78.81272 | 34973 ft | 487 kts | 66° |
| 2026-04-22 02:20 | 54.64311 | -78.70412 | 34969 ft | 488 kts | 66° |
| 2026-04-22 02:21 | 54.66830 | -78.59534 | 34968 ft | 488 kts | 66° |
| 2026-04-22 02:21 | 54.69340 | -78.48642 | 34968 ft | 488 kts | 66° |
| 2026-04-22 02:22 | 54.71838 | -78.37743 | 34982 ft | 488 kts | 66° |
| 2026-04-22 02:22 | 54.74327 | -78.26828 | 34968 ft | 488 kts | 66° |
| 2026-04-22 02:23 | 54.76804 | -78.15908 | 34961 ft | 488 kts | 66° |
| 2026-04-22 02:23 | 54.79256 | -78.05046 | 34964 ft | 487 kts | 66° |
| 2026-04-22 02:24 | 54.81714 | -77.94096 | 34968 ft | 487 kts | 67° |
| 2026-04-22 02:24 | 54.84162 | -77.83137 | 34971 ft | 487 kts | 67° |
| 2026-04-22 02:25 | 54.86599 | -77.72166 | 34978 ft | 487 kts | 67° |
| 2026-04-22 02:25 | 54.89027 | -77.61181 | 34972 ft | 487 kts | 67° |
| 2026-04-22 02:26 | 54.91444 | -77.50187 | 34991 ft | 487 kts | 67° |
| 2026-04-22 02:26 | 54.93852 | -77.39172 | 34984 ft | 487 kts | 68° |
| 2026-04-22 02:27 | 54.96251 | -77.28145 | 34991 ft | 487 kts | 68° |
| 2026-04-22 02:27 | 54.98638 | -77.17112 | 35006 ft | 487 kts | 68° |
| 2026-04-22 02:28 | 55.01014 | -77.06069 | 35005 ft | 487 kts | 68° |
| 2026-04-22 02:28 | 55.03381 | -76.95012 | 34999 ft | 487 kts | 68° |
| 2026-04-22 02:29 | 55.05736 | -76.83947 | 35004 ft | 487 kts | 68° |
| 2026-04-22 02:29 | 55.08084 | -76.72857 | 35015 ft | 487 kts | 68° |
| 2026-04-22 02:30 | 55.10418 | -76.61769 | 35006 ft | 487 kts | 69° |
| 2026-04-22 02:30 | 55.12742 | -76.50670 | 35007 ft | 486 kts | 69° |
| 2026-04-22 02:31 | 55.15053 | -76.39573 | 35018 ft | 486 kts | 69° |
| 2026-04-22 02:31 | 55.17356 | -76.28456 | 35013 ft | 486 kts | 69° |
| 2026-04-22 02:32 | 55.19632 | -76.17404 | 35016 ft | 486 kts | 69° |
| 2026-04-22 02:32 | 55.21927 | -76.06196 | 35016 ft | 486 kts | 69° |
| 2026-04-22 02:33 | 55.24182 | -75.95124 | 35031 ft | 486 kts | 69° |
| 2026-04-22 02:33 | 55.26440 | -75.83974 | 35026 ft | 486 kts | 69° |
| 2026-04-22 02:34 | 55.28691 | -75.72799 | 35037 ft | 486 kts | 69° |
| 2026-04-22 02:34 | 55.30930 | -75.61620 | 35035 ft | 486 kts | 69° |
| 2026-04-22 02:35 | 55.33159 | -75.50423 | 35035 ft | 486 kts | 70° |
| 2026-04-22 02:35 | 55.35378 | -75.39216 | 35038 ft | 486 kts | 70° |
| 2026-04-22 02:36 | 55.37586 | -75.27998 | 35039 ft | 486 kts | 70° |
| 2026-04-22 02:36 | 55.39783 | -75.16769 | 35046 ft | 486 kts | 70° |
| 2026-04-22 02:37 | 55.41971 | -75.05525 | 35054 ft | 486 kts | 70° |
| 2026-04-22 02:37 | 55.44149 | -74.94265 | 35054 ft | 485 kts | 70° |
| 2026-04-22 02:38 | 55.46314 | -74.83002 | 35051 ft | 485 kts | 71° |
| 2026-04-22 02:38 | 55.48468 | -74.71737 | 35064 ft | 485 kts | 71° |
| 2026-04-22 02:39 | 55.50611 | -74.60462 | 35070 ft | 485 kts | 71° |
| 2026-04-22 02:39 | 55.52742 | -74.49184 | 35066 ft | 485 kts | 71° |
| 2026-04-22 02:40 | 55.54849 | -74.37964 | 35079 ft | 484 kts | 71° |
| 2026-04-22 02:40 | 55.56957 | -74.26671 | 35090 ft | 484 kts | 71° |
| 2026-04-22 02:41 | 55.59056 | -74.15360 | 35081 ft | 484 kts | 71° |
| 2026-04-22 02:41 | 55.61142 | -74.04052 | 35089 ft | 483 kts | 71° |
| 2026-04-22 02:42 | 55.63215 | -73.92744 | 35090 ft | 483 kts | 72° |
| 2026-04-22 02:42 | 55.65277 | -73.81424 | 35093 ft | 483 kts | 72° |
| 2026-04-22 02:43 | 55.67327 | -73.70106 | 35099 ft | 483 kts | 72° |
| 2026-04-22 02:43 | 55.69367 | -73.58776 | 35106 ft | 483 kts | 72° |
| 2026-04-22 02:44 | 55.71397 | -73.47424 | 35104 ft | 483 kts | 72° |
| 2026-04-22 02:44 | 55.73414 | -73.36080 | 35120 ft | 482 kts | 72° |
| 2026-04-22 02:45 | 55.75421 | -73.24724 | 35112 ft | 482 kts | 73° |
| 2026-04-22 02:45 | 55.77415 | -73.13364 | 35120 ft | 482 kts | 73° |
| 2026-04-22 02:46 | 55.79398 | -73.02001 | 35126 ft | 481 kts | 73° |
| 2026-04-22 02:46 | 55.81370 | -72.90628 | 35128 ft | 481 kts | 73° |
| 2026-04-22 02:47 | 55.83330 | -72.79246 | 35134 ft | 481 kts | 73° |
| 2026-04-22 02:47 | 55.85279 | -72.67861 | 35135 ft | 481 kts | 73° |
| 2026-04-22 02:48 | 55.87218 | -72.56464 | 35143 ft | 481 kts | 73° |
| 2026-04-22 02:48 | 55.89144 | -72.45070 | 35137 ft | 481 kts | 73° |
| 2026-04-22 02:49 | 55.91060 | -72.33656 | 35151 ft | 480 kts | 74° |
| 2026-04-22 02:49 | 55.92964 | -72.22243 | 35148 ft | 480 kts | 74° |
| 2026-04-22 02:50 | 55.94858 | -72.10814 | 35147 ft | 480 kts | 74° |
| 2026-04-22 02:50 | 55.96740 | -71.99380 | 35159 ft | 480 kts | 74° |
| 2026-04-22 02:51 | 55.98613 | -71.87934 | 35160 ft | 480 kts | 74° |
| 2026-04-22 02:51 | 56.00474 | -71.76478 | 35165 ft | 480 kts | 74° |
| 2026-04-22 02:52 | 56.02324 | -71.65014 | 35178 ft | 480 kts | 75° |
| 2026-04-22 02:52 | 56.03853 | -71.55479 | 35170 ft | 480 kts | 75° |
| 2026-04-22 02:53 | 56.05686 | -71.43985 | 35167 ft | 480 kts | 75° |
| 2026-04-22 02:53 | 56.07505 | -71.32497 | 35182 ft | 480 kts | 75° |
| 2026-04-22 02:54 | 56.09313 | -71.20994 | 35184 ft | 480 kts | 75° |
| 2026-04-22 02:54 | 56.11113 | -71.09473 | 35185 ft | 480 kts | 75° |
| 2026-04-22 02:55 | 56.12902 | -70.97939 | 35199 ft | 480 kts | 75° |
| 2026-04-22 02:55 | 56.14680 | -70.86394 | 35195 ft | 480 kts | 75° |
| 2026-04-22 02:56 | 56.16448 | -70.74833 | 35198 ft | 481 kts | 76° |
| 2026-04-22 02:56 | 56.18208 | -70.63245 | 35209 ft | 481 kts | 76° |
| 2026-04-22 02:57 | 56.19958 | -70.51642 | 35207 ft | 482 kts | 76° |
| 2026-04-22 02:57 | 56.21698 | -70.40022 | 35209 ft | 482 kts | 76° |
| 2026-04-22 02:58 | 56.23427 | -70.28385 | 35209 ft | 482 kts | 76° |
| 2026-04-22 02:58 | 56.25147 | -70.16736 | 35211 ft | 482 kts | 76° |
| 2026-04-22 02:59 | 56.26856 | -70.05067 | 35215 ft | 483 kts | 76° |
| 2026-04-22 02:59 | 56.28555 | -69.93388 | 35222 ft | 483 kts | 76° |
| 2026-04-22 03:00 | 56.30245 | -69.81683 | 35232 ft | 483 kts | 76° |
| 2026-04-22 03:00 | 56.31925 | -69.69956 | 35232 ft | 484 kts | 77° |
| 2026-04-22 03:01 | 56.33594 | -69.58219 | 35236 ft | 484 kts | 77° |
| 2026-04-22 03:01 | 56.35254 | -69.46465 | 35229 ft | 484 kts | 77° |
| 2026-04-22 03:02 | 56.36903 | -69.34696 | 35237 ft | 484 kts | 77° |
| 2026-04-22 03:02 | 56.38541 | -69.22911 | 35236 ft | 484 kts | 77° |
| 2026-04-22 03:03 | 56.40169 | -69.11112 | 35239 ft | 485 kts | 77° |
| 2026-04-22 03:03 | 56.41787 | -68.99289 | 35247 ft | 485 kts | 77° |
| 2026-04-22 03:04 | 56.43394 | -68.87457 | 35241 ft | 485 kts | 78° |
| 2026-04-22 03:04 | 56.44990 | -68.75613 | 35230 ft | 485 kts | 78° |
| 2026-04-22 03:05 | 56.46575 | -68.63755 | 35249 ft | 485 kts | 78° |
| 2026-04-22 03:05 | 56.48149 | -68.51891 | 35239 ft | 485 kts | 78° |
| 2026-04-22 03:06 | 56.49713 | -68.40005 | 35248 ft | 486 kts | 78° |
| 2026-04-22 03:06 | 56.51266 | -68.28100 | 35253 ft | 486 kts | 78° |
| 2026-04-22 03:07 | 56.52807 | -68.16196 | 35256 ft | 486 kts | 79° |
| 2026-04-22 03:07 | 56.54338 | -68.04271 | 35237 ft | 486 kts | 79° |
| 2026-04-22 03:08 | 56.55855 | -67.92354 | 35250 ft | 485 kts | 79° |
| 2026-04-22 03:08 | 56.57362 | -67.80423 | 35249 ft | 485 kts | 79° |
| 2026-04-22 03:09 | 56.58857 | -67.68479 | 35250 ft | 485 kts | 80° |
| 2026-04-22 03:09 | 56.60340 | -67.56535 | 35252 ft | 485 kts | 80° |
| 2026-04-22 03:10 | 56.61812 | -67.44574 | 35251 ft | 485 kts | 80° |
| 2026-04-22 03:10 | 56.63272 | -67.32613 | 35258 ft | 485 kts | 81° |
| 2026-04-22 03:11 | 56.64720 | -67.20642 | 35261 ft | 485 kts | 81° |
| 2026-04-22 03:11 | 56.66161 | -67.08645 | 35266 ft | 486 kts | 81° |
| 2026-04-22 03:12 | 56.67672 | -66.96754 | 35264 ft | 488 kts | 76° |
| 2026-04-22 03:12 | 56.70910 | -66.79174 | 35273 ft | 489 kts | 73° |
| 2026-04-22 03:13 | 56.73141 | -66.67479 | 35275 ft | 489 kts | 74° |
| 2026-04-22 03:13 | 56.75316 | -66.55723 | 35267 ft | 489 kts | 75° |
| 2026-04-22 03:14 | 56.77450 | -66.43947 | 35278 ft | 490 kts | 75° |
| 2026-04-22 03:14 | 56.79570 | -66.32127 | 35283 ft | 490 kts | 75° |
| 2026-04-22 03:15 | 56.81679 | -66.20299 | 35281 ft | 490 kts | 75° |
| 2026-04-22 03:15 | 56.83779 | -66.08461 | 35285 ft | 490 kts | 75° |
| 2026-04-22 03:16 | 56.85869 | -65.96610 | 35291 ft | 490 kts | 76° |
| 2026-04-22 03:16 | 56.87946 | -65.84751 | 35271 ft | 490 kts | 76° |
| 2026-04-22 03:17 | 56.90014 | -65.72869 | 35294 ft | 490 kts | 76° |
| 2026-04-22 03:17 | 56.92071 | -65.60971 | 35288 ft | 490 kts | 76° |
| 2026-04-22 03:18 | 56.94115 | -65.49068 | 35300 ft | 490 kts | 77° |
| 2026-04-22 03:18 | 56.96148 | -65.37154 | 35304 ft | 490 kts | 77° |
| 2026-04-22 03:19 | 56.98168 | -65.25232 | 35307 ft | 490 kts | 77° |
| 2026-04-22 03:19 | 57.00178 | -65.13291 | 35319 ft | 490 kts | 77° |
| 2026-04-22 03:20 | 57.02174 | -65.01351 | 35315 ft | 490 kts | 77° |
| 2026-04-22 03:20 | 57.04160 | -64.89395 | 35306 ft | 489 kts | 77° |
| 2026-04-22 03:21 | 57.06132 | -64.77439 | 35314 ft | 489 kts | 77° |
| 2026-04-22 03:21 | 57.08092 | -64.65476 | 35314 ft | 489 kts | 78° |
| 2026-04-22 03:22 | 57.10037 | -64.53517 | 35312 ft | 488 kts | 78° |
| 2026-04-22 03:22 | 57.11973 | -64.41539 | 35312 ft | 488 kts | 78° |
| 2026-04-22 03:23 | 57.13894 | -64.29560 | 35275 ft | 488 kts | 78° |
| 2026-04-22 03:23 | 57.15806 | -64.17564 | 35292 ft | 488 kts | 78° |
| 2026-04-22 03:24 | 57.17705 | -64.05556 | 35301 ft | 488 kts | 79° |
| 2026-04-22 03:24 | 57.19596 | -63.93521 | 35290 ft | 488 kts | 79° |
| 2026-04-22 03:25 | 57.21474 | -63.81482 | 35284 ft | 488 kts | 79° |
| 2026-04-22 03:25 | 57.23340 | -63.69430 | 35285 ft | 488 kts | 79° |
| 2026-04-22 03:26 | 57.25195 | -63.57364 | 35267 ft | 489 kts | 79° |
| 2026-04-22 03:26 | 57.27039 | -63.45285 | 35261 ft | 488 kts | 80° |
| 2026-04-22 03:27 | 57.28871 | -63.33197 | 35253 ft | 489 kts | 80° |
| 2026-04-22 03:27 | 57.30691 | -63.21092 | 35233 ft | 488 kts | 81° |
| 2026-04-22 03:28 | 57.32499 | -63.08988 | 35242 ft | 488 kts | 81° |
| 2026-04-22 03:28 | 57.34295 | -62.96870 | 35244 ft | 488 kts | 81° |
| 2026-04-22 03:29 | 57.36078 | -62.84742 | 35225 ft | 488 kts | 81° |
| 2026-04-22 03:29 | 57.37840 | -62.72675 | 35217 ft | 488 kts | 81° |
| 2026-04-22 03:30 | 57.39597 | -62.60555 | 35230 ft | 487 kts | 82° |
| 2026-04-22 03:30 | 57.41342 | -62.48414 | 35238 ft | 487 kts | 82° |
| 2026-04-22 03:31 | 57.43078 | -62.36240 | 35236 ft | 488 kts | 82° |
| 2026-04-22 03:31 | 57.44804 | -62.24055 | 35240 ft | 489 kts | 83° |
| 2026-04-22 03:32 | 57.46520 | -62.11842 | 35242 ft | 489 kts | 83° |
| 2026-04-22 03:32 | 57.48224 | -61.99619 | 35237 ft | 489 kts | 83° |
| 2026-04-22 03:33 | 57.49918 | -61.87371 | 35183 ft | 489 kts | 83° |
| 2026-04-22 03:33 | 57.51599 | -61.75122 | 35207 ft | 489 kts | 84° |
| 2026-04-22 03:34 | 57.53270 | -61.62843 | 35179 ft | 489 kts | 84° |
| 2026-04-22 03:34 | 57.54929 | -61.50558 | 35206 ft | 489 kts | 84° |
| 2026-04-22 03:35 | 57.56576 | -61.38261 | 35196 ft | 489 kts | 84° |
| 2026-04-22 03:35 | 57.58211 | -61.25947 | 35187 ft | 490 kts | 84° |
| 2026-04-22 03:36 | 57.59835 | -61.13619 | 35192 ft | 490 kts | 84° |
| 2026-04-22 03:36 | 57.61176 | -61.03369 | 35145 ft | 489 kts | 85° |
| 2026-04-22 03:37 | 57.62778 | -60.91021 | 35153 ft | 490 kts | 85° |
| 2026-04-22 03:37 | 57.64370 | -60.78639 | 35143 ft | 491 kts | 85° |
| 2026-04-22 03:38 | 57.65954 | -60.66222 | 35136 ft | 492 kts | 85° |
| 2026-04-22 03:38 | 57.67527 | -60.53786 | 35138 ft | 493 kts | 86° |
| 2026-04-22 03:39 | 57.69091 | -60.41311 | 35130 ft | 493 kts | 86° |
| 2026-04-22 03:39 | 57.70644 | -60.28821 | 35126 ft | 493 kts | 86° |
| 2026-04-22 03:40 | 57.72184 | -60.16328 | 35123 ft | 492 kts | 86° |
| 2026-04-22 03:40 | 57.73710 | -60.03820 | 35123 ft | 493 kts | 86° |
| 2026-04-22 03:41 | 57.75226 | -59.91293 | 35119 ft | 493 kts | 87° |
| 2026-04-22 03:41 | 57.76730 | -59.78758 | 35123 ft | 493 kts | 87° |
| 2026-04-22 03:42 | 57.78220 | -59.66219 | 35132 ft | 493 kts | 87° |
| 2026-04-22 03:42 | 57.79698 | -59.53668 | 35134 ft | 493 kts | 87° |
| 2026-04-22 03:43 | 57.81164 | -59.41114 | 35074 ft | 493 kts | 88° |
| 2026-04-22 03:43 | 57.82614 | -59.28574 | 35140 ft | 492 kts | 88° |
| 2026-04-22 03:44 | 57.84051 | -59.16013 | 35144 ft | 493 kts | 88° |
| 2026-04-22 03:44 | 57.85478 | -59.03423 | 35157 ft | 493 kts | 88° |
| 2026-04-22 03:45 | 57.86896 | -58.90810 | 35155 ft | 494 kts | 88° |
| 2026-04-22 03:45 | 57.88301 | -58.78189 | 35166 ft | 494 kts | 89° |
| 2026-04-22 03:46 | 57.89693 | -58.65559 | 35166 ft | 493 kts | 89° |
| 2026-04-22 03:46 | 57.91072 | -58.52921 | 35137 ft | 493 kts | 89° |
| 2026-04-22 03:47 | 57.92439 | -58.40270 | 35171 ft | 494 kts | 89° |
| 2026-04-22 03:47 | 57.93796 | -58.27576 | 35166 ft | 495 kts | 90° |
| 2026-04-22 03:48 | 57.95145 | -58.14849 | 35174 ft | 496 kts | 90° |
| 2026-04-22 03:48 | 57.96484 | -58.02097 | 35186 ft | 497 kts | 90° |
| 2026-04-22 03:49 | 57.98249 | -57.89366 | 35194 ft | 506 kts | 83° |
| 2026-04-22 03:49 | 58.00397 | -57.76687 | 35186 ft | 508 kts | 82° |
| 2026-04-22 03:50 | 58.02547 | -57.64016 | 35174 ft | 506 kts | 83° |
| 2026-04-22 03:50 | 58.04619 | -57.51361 | 35174 ft | 504 kts | 84° |
| 2026-04-22 03:51 | 58.06641 | -57.38700 | 35184 ft | 504 kts | 84° |
| 2026-04-22 03:51 | 58.08644 | -57.26020 | 35193 ft | 504 kts | 84° |
| 2026-04-22 03:52 | 58.10638 | -57.13326 | 35198 ft | 504 kts | 84° |
| 2026-04-22 03:52 | 58.12622 | -57.00624 | 35194 ft | 504 kts | 84° |
| 2026-04-22 03:53 | 58.14593 | -56.87914 | 35195 ft | 503 kts | 85° |
| 2026-04-22 03:53 | 58.16550 | -56.75204 | 35197 ft | 502 kts | 85° |
| 2026-04-22 03:54 | 58.18491 | -56.62493 | 35195 ft | 502 kts | 85° |
| 2026-04-22 03:54 | 58.20418 | -56.49777 | 35205 ft | 502 kts | 85° |
| 2026-04-22 03:55 | 58.22332 | -56.37051 | 35205 ft | 502 kts | 85° |
| 2026-04-22 03:55 | 58.24232 | -56.24317 | 35199 ft | 501 kts | 85° |
| 2026-04-22 03:56 | 58.26120 | -56.11571 | 35204 ft | 501 kts | 85° |
| 2026-04-22 03:56 | 58.27993 | -55.98834 | 35202 ft | 500 kts | 86° |
| 2026-04-22 03:57 | 58.29850 | -55.86092 | 35199 ft | 500 kts | 86° |
| 2026-04-22 03:57 | 58.31691 | -55.73371 | 35202 ft | 498 kts | 86° |
| 2026-04-22 03:58 | 58.33516 | -55.60650 | 35199 ft | 498 kts | 86° |
| 2026-04-22 03:58 | 58.35326 | -55.47928 | 35206 ft | 498 kts | 86° |
| 2026-04-22 03:59 | 58.37125 | -55.35189 | 35209 ft | 498 kts | 86° |
| 2026-04-22 03:59 | 58.38908 | -55.22474 | 35206 ft | 496 kts | 86° |
| 2026-04-22 04:00 | 58.40663 | -55.09845 | 35207 ft | 496 kts | 87° |
| 2026-04-22 04:00 | 58.42415 | -54.97134 | 35214 ft | 495 kts | 87° |
| 2026-04-22 04:01 | 58.44153 | -54.84418 | 35147 ft | 495 kts | 87° |
| 2026-04-22 04:01 | 58.45875 | -54.71720 | 35206 ft | 494 kts | 87° |
| 2026-04-22 04:02 | 58.47584 | -54.59001 | 35189 ft | 495 kts | 87° |
| 2026-04-22 04:02 | 58.49283 | -54.46254 | 35207 ft | 495 kts | 87° |
| 2026-04-22 04:03 | 58.50971 | -54.33484 | 35211 ft | 496 kts | 87° |
| 2026-04-22 04:03 | 58.52648 | -54.20696 | 35213 ft | 496 kts | 87° |
| 2026-04-22 04:04 | 58.54315 | -54.07880 | 35210 ft | 496 kts | 87° |
| 2026-04-22 04:04 | 58.55968 | -53.95053 | 35209 ft | 496 kts | 88° |
| 2026-04-22 04:05 | 58.57608 | -53.82221 | 35162 ft | 495 kts | 86° |
| 2026-04-22 04:05 | 58.59232 | -53.69398 | 35206 ft | 496 kts | 86° |
| 2026-04-22 04:06 | 58.60847 | -53.56516 | 35212 ft | 497 kts | 86° |
| 2026-04-22 04:06 | 58.62452 | -53.43608 | 35207 ft | 498 kts | 87° |
| 2026-04-22 04:07 | 58.64050 | -53.30654 | 35206 ft | 499 kts | 87° |
| 2026-04-22 04:07 | 58.65635 | -53.17685 | 35204 ft | 499 kts | 87° |
| 2026-04-22 04:08 | 58.67207 | -53.04708 | 35173 ft | 499 kts | 86° |
| 2026-04-22 04:08 | 58.68765 | -52.91715 | 35133 ft | 499 kts | 86° |
| 2026-04-22 04:09 | 58.70309 | -52.78734 | 35191 ft | 497 kts | 86° |
| 2026-04-22 04:09 | 58.71836 | -52.65763 | 35200 ft | 497 kts | 87° |
| 2026-04-22 04:10 | 58.73348 | -52.52793 | 35199 ft | 496 kts | 87° |
| 2026-04-22 04:10 | 58.74847 | -52.39818 | 35199 ft | 496 kts | 87° |
| 2026-04-22 04:11 | 58.76330 | -52.26849 | 35173 ft | 495 kts | 87° |
| 2026-04-22 04:11 | 58.77798 | -52.13905 | 35188 ft | 494 kts | 87° |
| 2026-04-22 04:12 | 58.79250 | -52.00966 | 35205 ft | 493 kts | 87° |
| 2026-04-22 04:12 | 58.80686 | -51.88037 | 35154 ft | 493 kts | 86° |
| 2026-04-22 04:13 | 58.82110 | -51.75088 | 35191 ft | 494 kts | 86° |
| 2026-04-22 04:13 | 58.83525 | -51.62082 | 35202 ft | 496 kts | 86° |
| 2026-04-22 04:14 | 58.84933 | -51.49032 | 35199 ft | 497 kts | 86° |
| 2026-04-22 04:14 | 58.86330 | -51.35945 | 35195 ft | 498 kts | 86° |
| 2026-04-22 04:15 | 58.87716 | -51.22835 | 35196 ft | 498 kts | 86° |
| 2026-04-22 04:15 | 58.89088 | -51.09718 | 35196 ft | 498 kts | 87° |
| 2026-04-22 04:16 | 58.91119 | -50.90032 | 35153 ft | 497 kts | 86° |
| 2026-04-22 04:17 | 58.92454 | -50.76928 | 35181 ft | 496 kts | 86° |
| 2026-04-22 04:17 | 58.93774 | -50.63819 | 35187 ft | 496 kts | 86° |
| 2026-04-22 04:18 | 58.95071 | -50.50799 | 35192 ft | 496 kts | 86° |
| 2026-04-22 04:18 | 58.96365 | -50.37675 | 35198 ft | 496 kts | 86° |
| 2026-04-22 04:19 | 58.97644 | -50.24552 | 35204 ft | 496 kts | 86° |
| 2026-04-22 04:19 | 58.98913 | -50.11410 | 35202 ft | 496 kts | 86° |
| 2026-04-22 04:20 | 58.99968 | -50.00396 | 35207 ft | 496 kts | 85° |
| 2026-04-22 04:20 | 59.01642 | -49.87336 | 35180 ft | 499 kts | 80° |
| 2026-04-22 04:21 | 59.03530 | -49.74403 | 35202 ft | 498 kts | 79° |
| 2026-04-22 04:21 | 59.05395 | -49.61480 | 35213 ft | 496 kts | 80° |
| 2026-04-22 04:22 | 59.07204 | -49.48542 | 35220 ft | 496 kts | 80° |
| 2026-04-22 04:22 | 59.08977 | -49.35598 | 35227 ft | 495 kts | 81° |
| 2026-04-22 04:23 | 59.10734 | -49.22640 | 35217 ft | 495 kts | 81° |
| 2026-04-22 04:23 | 59.12477 | -49.09690 | 35222 ft | 494 kts | 81° |
| 2026-04-22 04:24 | 59.14208 | -48.96736 | 35240 ft | 494 kts | 81° |
| 2026-04-22 04:24 | 59.15926 | -48.83769 | 35251 ft | 494 kts | 81° |
| 2026-04-22 04:25 | 59.17620 | -48.70875 | 35243 ft | 494 kts | 81° |
| 2026-04-22 04:25 | 59.19310 | -48.57896 | 35254 ft | 494 kts | 81° |
| 2026-04-22 04:26 | 59.20989 | -48.44897 | 35258 ft | 494 kts | 80° |
| 2026-04-22 04:26 | 59.22655 | -48.31876 | 35279 ft | 494 kts | 81° |
| 2026-04-22 04:27 | 59.24309 | -48.18843 | 35277 ft | 494 kts | 81° |
| 2026-04-22 04:27 | 59.25950 | -48.05799 | 35296 ft | 494 kts | 81° |
| 2026-04-22 04:28 | 59.27577 | -47.92739 | 35296 ft | 494 kts | 81° |
| 2026-04-22 04:28 | 59.29192 | -47.79666 | 35297 ft | 494 kts | 81° |
| 2026-04-22 04:29 | 59.30793 | -47.66592 | 35308 ft | 493 kts | 81° |
| 2026-04-22 04:29 | 59.32377 | -47.53525 | 35303 ft | 493 kts | 80° |
| 2026-04-22 04:30 | 59.33945 | -47.40478 | 35328 ft | 492 kts | 80° |
| 2026-04-22 04:30 | 59.35498 | -47.27431 | 35334 ft | 491 kts | 80° |
| 2026-04-22 04:31 | 59.37038 | -47.14379 | 35350 ft | 491 kts | 80° |
| 2026-04-22 04:31 | 59.38564 | -47.01317 | 35333 ft | 491 kts | 80° |
| 2026-04-22 04:32 | 59.40073 | -46.88284 | 35354 ft | 489 kts | 80° |
| 2026-04-22 04:32 | 59.41565 | -46.75270 | 35359 ft | 488 kts | 80° |
| 2026-04-22 04:33 | 59.43041 | -46.62273 | 35370 ft | 488 kts | 80° |
| 2026-04-22 04:33 | 59.44504 | -46.49261 | 35382 ft | 487 kts | 80° |
| 2026-04-22 04:34 | 59.45953 | -46.36246 | 35384 ft | 487 kts | 80° |
| 2026-04-22 04:34 | 59.47389 | -46.23223 | 35393 ft | 487 kts | 80° |
| 2026-04-22 04:35 | 59.48812 | -46.10197 | 35401 ft | 487 kts | 80° |
| 2026-04-22 04:35 | 59.50221 | -45.97166 | 35413 ft | 487 kts | 81° |
| 2026-04-22 04:36 | 59.51616 | -45.84127 | 35418 ft | 487 kts | 81° |
| 2026-04-22 04:36 | 59.53000 | -45.71069 | 35431 ft | 487 kts | 81° |
| 2026-04-22 04:37 | 59.54370 | -45.57998 | 35426 ft | 487 kts | 81° |
| 2026-04-22 04:37 | 59.55727 | -45.44919 | 35438 ft | 487 kts | 81° |
| 2026-04-22 04:38 | 59.57072 | -45.31828 | 35434 ft | 487 kts | 81° |
| 2026-04-22 04:38 | 59.58393 | -45.18824 | 35436 ft | 486 kts | 80° |
| 2026-04-22 04:39 | 59.59709 | -45.05740 | 35445 ft | 486 kts | 81° |
| 2026-04-22 04:39 | 59.61012 | -44.92648 | 35450 ft | 486 kts | 81° |
| 2026-04-22 04:40 | 59.62299 | -44.79564 | 35458 ft | 485 kts | 80° |
| 2026-04-22 04:40 | 59.63569 | -44.66514 | 35467 ft | 483 kts | 80° |
| 2026-04-22 04:41 | 59.64821 | -44.53508 | 35474 ft | 481 kts | 80° |
| 2026-04-22 04:41 | 59.66058 | -44.40518 | 35490 ft | 480 kts | 80° |
| 2026-04-22 04:42 | 59.67279 | -44.27545 | 35494 ft | 480 kts | 80° |
| 2026-04-22 04:42 | 59.68488 | -44.14566 | 35513 ft | 480 kts | 80° |
| 2026-04-22 04:43 | 59.69682 | -44.01580 | 35508 ft | 480 kts | 80° |
| 2026-04-22 04:43 | 59.70865 | -43.88582 | 35531 ft | 480 kts | 80° |
| 2026-04-22 04:44 | 59.72036 | -43.75563 | 35536 ft | 480 kts | 80° |
| 2026-04-22 04:44 | 59.73195 | -43.62527 | 35539 ft | 480 kts | 80° |
| 2026-04-22 04:45 | 59.74341 | -43.49476 | 35541 ft | 480 kts | 80° |
| 2026-04-22 04:45 | 59.75475 | -43.36409 | 35543 ft | 481 kts | 80° |
| 2026-04-22 04:46 | 59.76595 | -43.23347 | 35546 ft | 479 kts | 80° |
| 2026-04-22 04:46 | 59.77697 | -43.10338 | 35540 ft | 478 kts | 80° |
| 2026-04-22 04:47 | 59.78784 | -42.97339 | 35554 ft | 476 kts | 80° |
| 2026-04-22 04:47 | 59.79855 | -42.84373 | 35541 ft | 476 kts | 80° |
| 2026-04-22 04:48 | 59.80911 | -42.71420 | 35553 ft | 475 kts | 80° |
| 2026-04-22 04:48 | 59.81954 | -42.58471 | 35553 ft | 474 kts | 80° |
| 2026-04-22 04:49 | 59.82982 | -42.45541 | 35556 ft | 473 kts | 80° |
| 2026-04-22 04:49 | 59.83989 | -42.32710 | 35549 ft | 472 kts | 80° |
| 2026-04-22 04:50 | 59.84995 | -42.19717 | 35558 ft | 472 kts | 80° |
| 2026-04-22 04:50 | 59.85975 | -42.06900 | 35559 ft | 472 kts | 80° |
| 2026-04-22 04:51 | 59.86948 | -41.93996 | 35562 ft | 472 kts | 81° |
| 2026-04-22 04:51 | 59.87915 | -41.80996 | 35559 ft | 472 kts | 81° |
| 2026-04-22 04:52 | 59.88856 | -41.68163 | 35566 ft | 471 kts | 80° |
| 2026-04-22 04:52 | 59.89791 | -41.55244 | 35568 ft | 471 kts | 80° |
| 2026-04-22 04:53 | 59.90711 | -41.42342 | 35560 ft | 470 kts | 80° |
| 2026-04-22 04:53 | 59.91618 | -41.29453 | 35565 ft | 470 kts | 80° |
| 2026-04-22 04:54 | 59.92511 | -41.16562 | 35574 ft | 469 kts | 80° |
| 2026-04-22 04:54 | 59.93391 | -41.03675 | 35575 ft | 469 kts | 81° |
| 2026-04-22 04:55 | 59.94259 | -40.90783 | 35579 ft | 469 kts | 81° |
| 2026-04-22 04:55 | 59.95113 | -40.77890 | 35576 ft | 468 kts | 81° |
| 2026-04-22 04:56 | 59.95954 | -40.65010 | 35584 ft | 468 kts | 81° |
| 2026-04-22 04:56 | 59.96782 | -40.52122 | 35586 ft | 468 kts | 81° |
| 2026-04-22 04:57 | 59.97597 | -40.39231 | 35600 ft | 468 kts | 81° |
| 2026-04-22 04:57 | 59.98399 | -40.26353 | 35587 ft | 467 kts | 81° |
| 2026-04-22 04:58 | 59.99188 | -40.13494 | 35590 ft | 466 kts | 80° |
| 2026-04-22 04:58 | 59.99900 | -40.00646 | 35583 ft | 466 kts | 85° |
| 2026-04-22 04:59 | 59.99402 | -39.87684 | 35597 ft | 469 kts | 94° |
| 2026-04-22 04:59 | 59.98535 | -39.74754 | 35596 ft | 470 kts | 95° |
| 2026-04-22 05:00 | 59.97672 | -39.61830 | 35594 ft | 469 kts | 95° |
| 2026-04-22 05:00 | 59.96836 | -39.48902 | 35604 ft | 470 kts | 94° |
| 2026-04-22 05:01 | 59.96006 | -39.35973 | 35616 ft | 469 kts | 94° |
| 2026-04-22 05:01 | 59.95167 | -39.23062 | 35605 ft | 469 kts | 93° |
| 2026-04-22 05:02 | 59.94316 | -39.10193 | 35602 ft | 467 kts | 94° |
| 2026-04-22 05:02 | 59.93454 | -38.97358 | 35606 ft | 467 kts | 94° |
| 2026-04-22 05:03 | 59.92580 | -38.84544 | 35609 ft | 466 kts | 94° |
| 2026-04-22 05:03 | 59.91695 | -38.71741 | 35614 ft | 466 kts | 94° |
| 2026-04-22 05:04 | 59.90796 | -38.58949 | 35615 ft | 466 kts | 94° |
| 2026-04-22 05:04 | 59.90041 | -38.48324 | 35628 ft | 466 kts | 94° |
| 2026-04-22 05:05 | 59.89120 | -38.35539 | 35631 ft | 466 kts | 95° |
| 2026-04-22 05:05 | 59.88186 | -38.22763 | 35618 ft | 466 kts | 96° |
| 2026-04-22 05:06 | 59.87240 | -38.09989 | 35619 ft | 466 kts | 96° |
| 2026-04-22 05:06 | 59.86281 | -37.97220 | 35621 ft | 466 kts | 96° |
| 2026-04-22 05:07 | 59.85310 | -37.84462 | 35620 ft | 466 kts | 96° |
| 2026-04-22 05:07 | 59.84327 | -37.71707 | 35619 ft | 467 kts | 96° |
| 2026-04-22 05:08 | 59.83331 | -37.58960 | 35631 ft | 467 kts | 97° |
| 2026-04-22 05:08 | 59.82321 | -37.46198 | 35628 ft | 467 kts | 97° |
| 2026-04-22 05:09 | 59.81292 | -37.33349 | 35623 ft | 468 kts | 98° |
| 2026-04-22 05:09 | 59.80255 | -37.20581 | 35630 ft | 468 kts | 98° |
| 2026-04-22 05:10 | 59.79205 | -37.07807 | 35627 ft | 469 kts | 98° |
| 2026-04-22 05:10 | 59.78142 | -36.95037 | 35628 ft | 469 kts | 98° |
| 2026-04-22 05:11 | 59.77066 | -36.82267 | 35633 ft | 469 kts | 98° |
| 2026-04-22 05:11 | 59.75979 | -36.69511 | 35630 ft | 469 kts | 98° |
| 2026-04-22 05:12 | 59.74886 | -36.56848 | 35620 ft | 469 kts | 98° |
| 2026-04-22 05:12 | 59.73775 | -36.44123 | 35635 ft | 468 kts | 98° |
| 2026-04-22 05:13 | 59.72653 | -36.31419 | 35630 ft | 468 kts | 98° |
| 2026-04-22 05:13 | 59.71518 | -36.18722 | 35631 ft | 468 kts | 98° |
| 2026-04-22 05:14 | 59.70372 | -36.06038 | 35633 ft | 468 kts | 99° |
| 2026-04-22 05:14 | 59.69205 | -35.93276 | 35630 ft | 468 kts | 99° |
| 2026-04-22 05:15 | 59.68042 | -35.80696 | 35628 ft | 468 kts | 99° |
| 2026-04-22 05:15 | 59.66851 | -35.67950 | 35632 ft | 468 kts | 99° |
| 2026-04-22 05:16 | 59.65655 | -35.55297 | 35628 ft | 468 kts | 99° |
| 2026-04-22 05:16 | 59.64447 | -35.42651 | 35628 ft | 468 kts | 99° |
| 2026-04-22 05:17 | 59.63227 | -35.30017 | 35633 ft | 468 kts | 99° |
| 2026-04-22 05:17 | 59.62002 | -35.17464 | 35630 ft | 468 kts | 99° |
| 2026-04-22 05:18 | 59.60130 | -34.98538 | 35634 ft | 468 kts | 99° |
| 2026-04-22 05:18 | 59.58869 | -34.85944 | 35629 ft | 467 kts | 99° |
| 2026-04-22 05:19 | 59.57597 | -34.73378 | 35628 ft | 467 kts | 99° |
| 2026-04-22 05:19 | 59.56314 | -34.60831 | 35626 ft | 467 kts | 99° |
| 2026-04-22 05:20 | 59.55020 | -34.48297 | 35619 ft | 467 kts | 99° |
| 2026-04-22 05:20 | 59.53713 | -34.35774 | 35631 ft | 466 kts | 99° |
| 2026-04-22 05:21 | 59.52395 | -34.23256 | 35627 ft | 467 kts | 99° |
| 2026-04-22 05:21 | 59.51064 | -34.10749 | 35629 ft | 466 kts | 99° |
| 2026-04-22 05:22 | 59.49723 | -33.98273 | 35626 ft | 465 kts | 99° |
| 2026-04-22 05:22 | 59.48373 | -33.85826 | 35628 ft | 465 kts | 99° |
| 2026-04-22 05:23 | 59.47021 | -33.73478 | 35631 ft | 465 kts | 99° |
| 2026-04-22 05:23 | 59.45650 | -33.61070 | 35642 ft | 465 kts | 99° |
| 2026-04-22 05:24 | 59.44265 | -33.48660 | 35622 ft | 465 kts | 99° |
| 2026-04-22 05:24 | 59.42869 | -33.36260 | 35643 ft | 465 kts | 99° |
| 2026-04-22 05:25 | 59.41461 | -33.23871 | 35635 ft | 464 kts | 99° |
| 2026-04-22 05:25 | 59.40043 | -33.11508 | 35623 ft | 464 kts | 99° |
| 2026-04-22 05:26 | 59.38606 | -32.99093 | 35626 ft | 463 kts | 99° |
| 2026-04-22 05:26 | 59.37167 | -32.86774 | 35626 ft | 463 kts | 99° |
| 2026-04-22 05:27 | 59.35718 | -32.74469 | 35628 ft | 463 kts | 99° |
| 2026-04-22 05:27 | 59.34256 | -32.62171 | 35627 ft | 463 kts | 99° |
| 2026-04-22 05:28 | 59.32783 | -32.49890 | 35647 ft | 463 kts | 99° |
| 2026-04-22 05:28 | 59.31300 | -32.37636 | 35627 ft | 462 kts | 99° |
| 2026-04-22 05:29 | 59.29812 | -32.25439 | 35618 ft | 460 kts | 99° |
| 2026-04-22 05:29 | 59.28314 | -32.13267 | 35620 ft | 460 kts | 99° |
| 2026-04-22 05:30 | 59.26809 | -32.01128 | 35620 ft | 459 kts | 99° |
| 2026-04-22 05:30 | 59.25293 | -31.89009 | 35621 ft | 459 kts | 99° |
| 2026-04-22 05:31 | 59.23764 | -31.76892 | 35621 ft | 459 kts | 99° |
| 2026-04-22 05:31 | 59.22224 | -31.64786 | 35640 ft | 459 kts | 99° |
| 2026-04-22 05:32 | 59.20674 | -31.52702 | 35623 ft | 458 kts | 99° |
| 2026-04-22 05:32 | 59.19117 | -31.40660 | 35618 ft | 457 kts | 99° |
| 2026-04-22 05:33 | 59.17551 | -31.28648 | 35614 ft | 457 kts | 99° |
| 2026-04-22 05:33 | 59.15976 | -31.16657 | 35618 ft | 457 kts | 99° |
| 2026-04-22 05:34 | 59.14390 | -31.04674 | 35614 ft | 457 kts | 99° |
| 2026-04-22 05:34 | 59.12793 | -30.92709 | 35614 ft | 457 kts | 99° |
| 2026-04-22 05:35 | 59.11183 | -30.80738 | 35638 ft | 457 kts | 99° |
| 2026-04-22 05:35 | 59.09564 | -30.68799 | 35617 ft | 456 kts | 99° |
| 2026-04-22 05:36 | 59.07938 | -30.56893 | 35603 ft | 455 kts | 99° |
| 2026-04-22 05:36 | 59.06304 | -30.45019 | 35608 ft | 454 kts | 99° |
| 2026-04-22 05:37 | 59.04662 | -30.33170 | 35603 ft | 454 kts | 99° |
| 2026-04-22 05:37 | 59.03008 | -30.21331 | 35603 ft | 454 kts | 99° |
| 2026-04-22 05:38 | 59.01346 | -30.09507 | 35606 ft | 454 kts | 99° |
| 2026-04-22 05:38 | 58.99666 | -29.97686 | 35610 ft | 455 kts | 99° |
| 2026-04-22 05:39 | 58.97888 | -29.85914 | 35605 ft | 455 kts | 100° |
| 2026-04-22 05:39 | 58.96069 | -29.74187 | 35599 ft | 454 kts | 100° |
| 2026-04-22 05:40 | 58.94250 | -29.62487 | 35593 ft | 453 kts | 100° |
| 2026-04-22 05:40 | 58.92432 | -29.50811 | 35595 ft | 453 kts | 100° |
| 2026-04-22 05:41 | 58.90608 | -29.39147 | 35594 ft | 453 kts | 101° |
| 2026-04-22 05:41 | 58.88773 | -29.27495 | 35595 ft | 453 kts | 101° |
| 2026-04-22 05:42 | 58.86928 | -29.15851 | 35600 ft | 453 kts | 101° |
| 2026-04-22 05:42 | 58.85072 | -29.04232 | 35584 ft | 452 kts | 101° |
| 2026-04-22 05:43 | 58.83210 | -28.92643 | 35592 ft | 451 kts | 101° |
| 2026-04-22 05:43 | 58.81340 | -28.81088 | 35589 ft | 451 kts | 101° |
| 2026-04-22 05:44 | 58.79464 | -28.69563 | 35580 ft | 450 kts | 101° |
| 2026-04-22 05:44 | 58.77578 | -28.58057 | 35582 ft | 450 kts | 101° |
| 2026-04-22 05:45 | 58.76004 | -28.48507 | 35581 ft | 450 kts | 101° |
| 2026-04-22 05:45 | 58.74100 | -28.37027 | 35579 ft | 450 kts | 101° |
| 2026-04-22 05:46 | 58.72188 | -28.25581 | 35575 ft | 449 kts | 101° |
| 2026-04-22 05:46 | 58.70271 | -28.14170 | 35576 ft | 448 kts | 101° |
| 2026-04-22 05:47 | 58.68347 | -28.02785 | 35584 ft | 447 kts | 102° |
| 2026-04-22 05:47 | 58.66415 | -27.91428 | 35577 ft | 447 kts | 102° |
| 2026-04-22 05:48 | 58.64474 | -27.80089 | 35568 ft | 447 kts | 102° |
| 2026-04-22 05:48 | 58.62523 | -27.68762 | 35569 ft | 447 kts | 102° |
| 2026-04-22 05:49 | 58.60561 | -27.57446 | 35568 ft | 447 kts | 102° |
| 2026-04-22 05:49 | 58.58589 | -27.46139 | 35564 ft | 447 kts | 102° |
| 2026-04-22 05:50 | 58.56619 | -27.34912 | 35564 ft | 447 kts | 102° |
| 2026-04-22 05:50 | 58.54625 | -27.23618 | 35580 ft | 448 kts | 103° |
| 2026-04-22 05:51 | 58.52621 | -27.12339 | 35563 ft | 448 kts | 103° |
| 2026-04-22 05:51 | 58.50607 | -27.01073 | 35559 ft | 447 kts | 103° |
| 2026-04-22 05:52 | 58.48584 | -26.89826 | 35581 ft | 447 kts | 103° |
| 2026-04-22 05:52 | 58.46553 | -26.78599 | 35560 ft | 447 kts | 103° |
| 2026-04-22 05:53 | 58.44514 | -26.67396 | 35546 ft | 446 kts | 103° |
| 2026-04-22 05:53 | 58.42468 | -26.56221 | 35548 ft | 446 kts | 104° |
| 2026-04-22 05:54 | 58.40414 | -26.45065 | 35550 ft | 446 kts | 104° |
| 2026-04-22 05:54 | 58.38351 | -26.33925 | 35548 ft | 446 kts | 104° |
| 2026-04-22 05:55 | 58.36278 | -26.22797 | 35541 ft | 446 kts | 104° |
| 2026-04-22 05:55 | 58.34195 | -26.11681 | 35560 ft | 446 kts | 104° |
| 2026-04-22 05:56 | 58.32100 | -26.00566 | 35549 ft | 446 kts | 105° |
| 2026-04-22 05:56 | 58.29996 | -25.89469 | 35534 ft | 446 kts | 105° |
| 2026-04-22 05:57 | 58.27883 | -25.78386 | 35535 ft | 446 kts | 105° |
| 2026-04-22 05:57 | 58.25761 | -25.67322 | 35529 ft | 446 kts | 105° |
| 2026-04-22 05:58 | 58.23629 | -25.56264 | 35527 ft | 446 kts | 105° |
| 2026-04-22 05:58 | 58.21488 | -25.45224 | 35538 ft | 446 kts | 106° |
| 2026-04-22 05:59 | 58.19336 | -25.34189 | 35531 ft | 446 kts | 107° |
| 2026-04-22 05:59 | 58.17188 | -25.23241 | 35526 ft | 446 kts | 107° |
| 2026-04-22 06:00 | 58.15019 | -25.12247 | 35526 ft | 446 kts | 107° |
| 2026-04-22 06:00 | 58.12842 | -25.01270 | 35523 ft | 445 kts | 107° |
| 2026-04-22 06:01 | 58.10656 | -24.90310 | 35521 ft | 445 kts | 107° |
| 2026-04-22 06:01 | 58.08462 | -24.79367 | 35518 ft | 445 kts | 107° |
| 2026-04-22 06:02 | 58.06257 | -24.68434 | 35518 ft | 445 kts | 107° |
| 2026-04-22 06:02 | 58.04042 | -24.57509 | 35524 ft | 445 kts | 108° |
| 2026-04-22 06:03 | 58.01821 | -24.46614 | 35509 ft | 445 kts | 108° |
| 2026-04-22 06:03 | 57.99593 | -24.35748 | 35510 ft | 444 kts | 108° |
| 2026-04-22 06:04 | 57.97358 | -24.24904 | 35510 ft | 444 kts | 108° |
| 2026-04-22 06:04 | 57.95116 | -24.14081 | 35509 ft | 444 kts | 108° |
| 2026-04-22 06:05 | 57.92865 | -24.03272 | 35510 ft | 444 kts | 108° |
| 2026-04-22 06:05 | 57.90604 | -23.92475 | 35511 ft | 444 kts | 108° |
| 2026-04-22 06:06 | 57.88334 | -23.81694 | 35511 ft | 443 kts | 108° |
| 2026-04-22 06:06 | 57.86058 | -23.70940 | 35507 ft | 443 kts | 108° |
| 2026-04-22 06:07 | 57.83777 | -23.60219 | 35494 ft | 442 kts | 108° |
| 2026-04-22 06:07 | 57.81491 | -23.49531 | 35496 ft | 441 kts | 108° |
| 2026-04-22 06:08 | 57.79197 | -23.38860 | 35496 ft | 441 kts | 109° |
| 2026-04-22 06:08 | 57.76896 | -23.28208 | 35488 ft | 441 kts | 109° |
| 2026-04-22 06:09 | 57.74586 | -23.17572 | 35514 ft | 441 kts | 109° |
| 2026-04-22 06:09 | 57.72265 | -23.06941 | 35502 ft | 441 kts | 109° |
| 2026-04-22 06:10 | 57.69937 | -22.96331 | 35480 ft | 441 kts | 109° |
| 2026-04-22 06:10 | 57.67600 | -22.85736 | 35484 ft | 441 kts | 110° |
| 2026-04-22 06:11 | 57.65253 | -22.75150 | 35481 ft | 441 kts | 110° |
| 2026-04-22 06:11 | 57.62897 | -22.64572 | 35479 ft | 441 kts | 110° |
| 2026-04-22 06:12 | 57.60530 | -22.54002 | 35481 ft | 442 kts | 110° |
| 2026-04-22 06:12 | 57.58155 | -22.43449 | 35472 ft | 442 kts | 111° |
| 2026-04-22 06:13 | 57.55761 | -22.32865 | 35477 ft | 444 kts | 111° |
| 2026-04-22 06:13 | 57.53353 | -22.22270 | 35471 ft | 445 kts | 111° |
| 2026-04-22 06:14 | 57.50931 | -22.11671 | 35469 ft | 445 kts | 111° |
| 2026-04-22 06:14 | 57.48499 | -22.01076 | 35468 ft | 446 kts | 111° |
| 2026-04-22 06:15 | 57.46056 | -21.90489 | 35468 ft | 446 kts | 111° |
| 2026-04-22 06:15 | 57.43604 | -21.79916 | 35468 ft | 446 kts | 111° |
| 2026-04-22 06:16 | 57.41159 | -21.69422 | 35473 ft | 446 kts | 112° |
| 2026-04-22 06:16 | 57.38683 | -21.58850 | 35458 ft | 447 kts | 112° |
| 2026-04-22 06:17 | 57.36196 | -21.48284 | 35466 ft | 447 kts | 112° |
| 2026-04-22 06:17 | 57.33704 | -21.37743 | 35459 ft | 447 kts | 112° |
| 2026-04-22 06:18 | 57.31199 | -21.27205 | 35454 ft | 447 kts | 112° |
| 2026-04-22 06:18 | 57.28688 | -21.16689 | 35453 ft | 447 kts | 113° |
| 2026-04-22 06:19 | 57.26166 | -21.06180 | 35454 ft | 448 kts | 113° |
| 2026-04-22 06:19 | 57.23636 | -20.95685 | 35454 ft | 447 kts | 113° |
| 2026-04-22 06:20 | 57.21100 | -20.85221 | 35450 ft | 447 kts | 114° |
| 2026-04-22 06:20 | 57.18552 | -20.74752 | 35444 ft | 448 kts | 114° |
| 2026-04-22 06:21 | 57.16001 | -20.64327 | 35442 ft | 446 kts | 114° |
| 2026-04-22 06:21 | 57.13442 | -20.53914 | 35454 ft | 446 kts | 114° |
| 2026-04-22 06:22 | 57.10873 | -20.43509 | 35454 ft | 446 kts | 114° |
| 2026-04-22 06:22 | 57.08295 | -20.33117 | 35442 ft | 448 kts | 114° |
| 2026-04-22 06:23 | 57.05696 | -20.22691 | 35433 ft | 449 kts | 114° |
| 2026-04-22 06:23 | 57.03094 | -20.12292 | 35433 ft | 448 kts | 114° |
| 2026-04-22 06:24 | 56.99634 | -19.96370 | 35432 ft | 449 kts | 101° |
| 2026-04-22 06:25 | 56.98710 | -19.85075 | 35430 ft | 448 kts | 98° |
| 2026-04-22 06:25 | 56.97857 | -19.73757 | 35430 ft | 448 kts | 98° |
| 2026-04-22 06:26 | 56.96965 | -19.62424 | 35440 ft | 450 kts | 99° |
| 2026-04-22 06:26 | 56.96037 | -19.51079 | 35426 ft | 451 kts | 99° |
| 2026-04-22 06:27 | 56.95089 | -19.39712 | 35418 ft | 453 kts | 99° |
| 2026-04-22 06:27 | 56.94122 | -19.28272 | 35443 ft | 456 kts | 100° |
| 2026-04-22 06:28 | 56.93140 | -19.16771 | 35429 ft | 458 kts | 100° |
| 2026-04-22 06:28 | 56.92145 | -19.05238 | 35436 ft | 459 kts | 99° |
| 2026-04-22 06:29 | 56.91137 | -18.93682 | 35433 ft | 460 kts | 100° |
| 2026-04-22 06:29 | 56.90118 | -18.82131 | 35420 ft | 460 kts | 100° |
| 2026-04-22 06:30 | 56.89263 | -18.72535 | 35433 ft | 459 kts | 100° |
| 2026-04-22 06:30 | 56.88225 | -18.61004 | 35433 ft | 459 kts | 100° |
| 2026-04-22 06:31 | 56.87178 | -18.49494 | 35423 ft | 459 kts | 100° |
| 2026-04-22 06:31 | 56.86121 | -18.37987 | 35430 ft | 459 kts | 100° |
| 2026-04-22 06:32 | 56.85053 | -18.26495 | 35413 ft | 459 kts | 101° |
| 2026-04-22 06:32 | 56.83970 | -18.14964 | 35434 ft | 462 kts | 101° |
| 2026-04-22 06:33 | 56.82873 | -18.03392 | 35428 ft | 463 kts | 101° |
| 2026-04-22 06:33 | 56.81760 | -17.91784 | 35423 ft | 464 kts | 101° |
| 2026-04-22 06:34 | 56.80635 | -17.80164 | 35420 ft | 465 kts | 101° |
| 2026-04-22 06:34 | 56.79498 | -17.68535 | 35422 ft | 466 kts | 101° |
| 2026-04-22 06:35 | 56.78348 | -17.56899 | 35413 ft | 467 kts | 101° |
| 2026-04-22 06:35 | 56.77186 | -17.45259 | 35414 ft | 467 kts | 101° |
| 2026-04-22 06:36 | 56.76013 | -17.33620 | 35416 ft | 467 kts | 101° |
| 2026-04-22 06:36 | 56.74830 | -17.21994 | 35421 ft | 467 kts | 102° |
| 2026-04-22 06:37 | 56.73636 | -17.10379 | 35395 ft | 467 kts | 101° |
| 2026-04-22 06:37 | 56.72427 | -16.98726 | 35422 ft | 469 kts | 102° |
| 2026-04-22 06:38 | 56.71202 | -16.87034 | 35420 ft | 471 kts | 102° |
| 2026-04-22 06:38 | 56.69962 | -16.75313 | 35419 ft | 472 kts | 102° |
| 2026-04-22 06:39 | 56.68710 | -16.63587 | 35404 ft | 472 kts | 102° |
| 2026-04-22 06:39 | 56.67446 | -16.51865 | 35404 ft | 472 kts | 102° |
| 2026-04-22 06:40 | 56.66171 | -16.40143 | 35411 ft | 473 kts | 102° |
| 2026-04-22 06:40 | 56.64883 | -16.28422 | 35411 ft | 473 kts | 102° |
| 2026-04-22 06:41 | 56.63584 | -16.16697 | 35407 ft | 473 kts | 102° |
| 2026-04-22 06:41 | 56.62272 | -16.04969 | 35411 ft | 474 kts | 102° |
| 2026-04-22 06:42 | 56.60949 | -15.93249 | 35405 ft | 474 kts | 102° |
| 2026-04-22 06:42 | 56.59614 | -15.81530 | 35413 ft | 474 kts | 102° |
| 2026-04-22 06:43 | 56.58265 | -15.69789 | 35408 ft | 476 kts | 102° |
| 2026-04-22 06:43 | 56.56903 | -15.58036 | 35399 ft | 477 kts | 102° |
| 2026-04-22 06:44 | 56.55526 | -15.46268 | 35405 ft | 477 kts | 103° |
| 2026-04-22 06:44 | 56.54138 | -15.34500 | 35410 ft | 477 kts | 103° |
| 2026-04-22 06:45 | 56.52740 | -15.22745 | 35390 ft | 478 kts | 103° |
| 2026-04-22 06:45 | 56.51332 | -15.11002 | 35403 ft | 477 kts | 103° |
| 2026-04-22 06:46 | 56.50022 | -14.99203 | 35395 ft | 479 kts | 96° |
| 2026-04-22 06:46 | 56.49913 | -14.87242 | 35407 ft | 479 kts | 89° |
| 2026-04-22 06:47 | 56.50031 | -14.75173 | 35397 ft | 480 kts | 89° |
| 2026-04-22 06:47 | 56.50092 | -14.63105 | 35402 ft | 480 kts | 90° |
| 2026-04-22 06:48 | 56.50102 | -14.51014 | 35413 ft | 480 kts | 90° |
| 2026-04-22 06:48 | 56.50094 | -14.38899 | 35420 ft | 481 kts | 90° |
| 2026-04-22 06:49 | 56.50076 | -14.26784 | 35414 ft | 481 kts | 90° |
| 2026-04-22 06:49 | 56.50051 | -14.14662 | 35414 ft | 482 kts | 90° |
| 2026-04-22 06:50 | 56.49858 | -14.02553 | 35399 ft | 482 kts | 98° |
| 2026-04-22 06:50 | 56.48085 | -13.90925 | 35416 ft | 480 kts | 113° |
| 2026-04-22 06:51 | 56.45466 | -13.79784 | 35417 ft | 482 kts | 114° |
| 2026-04-22 06:51 | 56.42819 | -13.68653 | 35415 ft | 482 kts | 114° |
| 2026-04-22 06:52 | 56.40220 | -13.57565 | 35411 ft | 483 kts | 113° |
| 2026-04-22 06:52 | 56.37597 | -13.46317 | 35406 ft | 483 kts | 114° |
| 2026-04-22 06:53 | 56.35005 | -13.35229 | 35404 ft | 483 kts | 114° |
| 2026-04-22 06:53 | 56.32386 | -13.24089 | 35413 ft | 482 kts | 114° |
| 2026-04-22 06:54 | 56.29753 | -13.12957 | 35418 ft | 484 kts | 114° |
| 2026-04-22 06:54 | 56.27105 | -13.01825 | 35429 ft | 483 kts | 114° |
| 2026-04-22 06:55 | 56.24450 | -12.90714 | 35406 ft | 485 kts | 114° |
| 2026-04-22 06:55 | 56.21775 | -12.79584 | 35410 ft | 485 kts | 114° |
| 2026-04-22 06:56 | 56.19097 | -12.68491 | 35407 ft | 485 kts | 114° |
| 2026-04-22 06:56 | 56.16403 | -12.57392 | 35412 ft | 485 kts | 114° |
| 2026-04-22 06:57 | 56.13703 | -12.46325 | 35411 ft | 484 kts | 115° |
| 2026-04-22 06:57 | 56.10990 | -12.35259 | 35411 ft | 485 kts | 114° |
| 2026-04-22 06:58 | 56.08272 | -12.24228 | 35411 ft | 484 kts | 115° |
| 2026-04-22 06:58 | 56.05540 | -12.13198 | 35412 ft | 485 kts | 115° |
| 2026-04-22 06:59 | 56.02798 | -12.02181 | 35402 ft | 484 kts | 115° |
| 2026-04-22 06:59 | 56.00044 | -11.91171 | 35408 ft | 485 kts | 115° |
| 2026-04-22 07:00 | 55.97283 | -11.80191 | 35398 ft | 484 kts | 115° |
| 2026-04-22 07:00 | 55.94514 | -11.69229 | 35405 ft | 485 kts | 115° |
| 2026-04-22 07:01 | 55.91736 | -11.58291 | 35415 ft | 483 kts | 115° |
| 2026-04-22 07:01 | 55.88950 | -11.47371 | 35405 ft | 485 kts | 116° |
| 2026-04-22 07:02 | 55.86148 | -11.36444 | 35402 ft | 484 kts | 115° |
| 2026-04-22 07:02 | 55.83340 | -11.25545 | 35399 ft | 486 kts | 116° |
| 2026-04-22 07:03 | 55.80514 | -11.14628 | 35405 ft | 486 kts | 116° |
| 2026-04-22 07:03 | 55.77681 | -11.03741 | 35397 ft | 485 kts | 116° |
| 2026-04-22 07:04 | 55.74837 | -10.92861 | 35403 ft | 486 kts | 116° |
| 2026-04-22 07:04 | 55.71986 | -10.82010 | 35410 ft | 485 kts | 116° |
| 2026-04-22 07:05 | 55.69124 | -10.71167 | 35415 ft | 486 kts | 116° |
| 2026-04-22 07:05 | 55.66250 | -10.60332 | 35410 ft | 486 kts | 116° |
| 2026-04-22 07:06 | 55.63364 | -10.49504 | 35407 ft | 487 kts | 116° |
| 2026-04-22 07:06 | 55.60466 | -10.38677 | 35410 ft | 486 kts | 116° |
| 2026-04-22 07:07 | 55.57561 | -10.27878 | 35411 ft | 487 kts | 117° |
| 2026-04-22 07:07 | 55.54644 | -10.17087 | 35414 ft | 486 kts | 116° |
| 2026-04-22 07:08 | 55.51725 | -10.06329 | 35408 ft | 486 kts | 117° |
| 2026-04-22 07:08 | 55.48815 | -9.95540 | 35418 ft | 487 kts | 115° |
| 2026-04-22 07:09 | 55.46070 | -9.84626 | 35406 ft | 487 kts | 114° |
| 2026-04-22 07:09 | 55.43355 | -9.73662 | 35413 ft | 488 kts | 114° |
| 2026-04-22 07:10 | 55.40614 | -9.62736 | 35407 ft | 488 kts | 115° |
| 2026-04-22 07:10 | 55.37848 | -9.51839 | 35407 ft | 488 kts | 115° |
| 2026-04-22 07:11 | 55.35072 | -9.40985 | 35417 ft | 487 kts | 115° |
| 2026-04-22 07:11 | 55.32282 | -9.30130 | 35416 ft | 488 kts | 115° |
| 2026-04-22 07:12 | 55.29482 | -9.19285 | 35412 ft | 488 kts | 115° |
| 2026-04-22 07:12 | 55.26690 | -9.08522 | 35414 ft | 488 kts | 115° |
| 2026-04-22 07:13 | 55.23848 | -8.97617 | 35410 ft | 488 kts | 116° |
| 2026-04-22 07:13 | 55.21018 | -8.86806 | 35408 ft | 489 kts | 116° |
| 2026-04-22 07:14 | 55.18659 | -8.77841 | 35418 ft | 487 kts | 116° |
| 2026-04-22 07:14 | 55.15361 | -8.65360 | 35406 ft | 486 kts | 116° |
| 2026-04-22 07:15 | 55.12522 | -8.54671 | 35413 ft | 485 kts | 116° |
| 2026-04-22 07:15 | 55.09676 | -8.44009 | 35415 ft | 484 kts | 116° |
| 2026-04-22 07:16 | 55.07287 | -8.35094 | 35429 ft | 484 kts | 116° |
| 2026-04-22 07:16 | 55.04427 | -8.24471 | 35431 ft | 484 kts | 116° |
| 2026-04-22 07:17 | 55.01555 | -8.13850 | 35424 ft | 485 kts | 116° |
| 2026-04-22 07:17 | 54.98669 | -8.03229 | 35414 ft | 485 kts | 116° |
| 2026-04-22 07:18 | 54.95795 | -7.92702 | 35423 ft | 485 kts | 116° |
| 2026-04-22 07:18 | 54.92893 | -7.82116 | 35424 ft | 485 kts | 116° |
| 2026-04-22 07:19 | 54.89983 | -7.71555 | 35418 ft | 485 kts | 116° |
| 2026-04-22 07:19 | 54.87061 | -7.60998 | 35437 ft | 485 kts | 116° |
| 2026-04-22 07:20 | 54.84128 | -7.50448 | 35421 ft | 486 kts | 117° |
| 2026-04-22 07:20 | 54.81181 | -7.39898 | 35422 ft | 486 kts | 117° |
| 2026-04-22 07:21 | 54.78223 | -7.29353 | 35402 ft | 487 kts | 117° |
| 2026-04-22 07:21 | 54.75256 | -7.18827 | 35418 ft | 486 kts | 117° |
| 2026-04-22 07:22 | 54.72285 | -7.08333 | 35429 ft | 485 kts | 117° |
| 2026-04-22 07:22 | 54.69305 | -6.97855 | 35433 ft | 486 kts | 117° |
| 2026-04-22 07:23 | 54.66311 | -6.87375 | 35429 ft | 487 kts | 117° |
| 2026-04-22 07:23 | 54.63305 | -6.76900 | 35427 ft | 487 kts | 117° |
| 2026-04-22 07:24 | 54.60290 | -6.66443 | 35426 ft | 487 kts | 117° |
| 2026-04-22 07:24 | 54.57265 | -6.55995 | 35413 ft | 487 kts | 117° |
| 2026-04-22 07:25 | 54.54234 | -6.45572 | 35421 ft | 486 kts | 118° |
| 2026-04-22 07:25 | 54.51193 | -6.35165 | 35428 ft | 487 kts | 117° |
| 2026-04-22 07:26 | 54.48138 | -6.24752 | 35430 ft | 488 kts | 118° |
| 2026-04-22 07:26 | 54.45073 | -6.14353 | 35429 ft | 488 kts | 118° |
| 2026-04-22 07:27 | 54.41996 | -6.03960 | 35439 ft | 488 kts | 118° |
| 2026-04-22 07:27 | 54.38912 | -5.93586 | 35440 ft | 488 kts | 118° |
| 2026-04-22 07:28 | 54.34266 | -5.78047 | 35427 ft | 488 kts | 118° |
| 2026-04-22 07:28 | 54.31161 | -5.67719 | 35427 ft | 487 kts | 118° |
| 2026-04-22 07:29 | 54.28049 | -5.57409 | 35420 ft | 488 kts | 118° |
| 2026-04-22 07:29 | 54.24928 | -5.47118 | 35421 ft | 487 kts | 118° |
| 2026-04-22 07:30 | 54.21799 | -5.36841 | 35414 ft | 487 kts | 118° |
| 2026-04-22 07:30 | 54.18661 | -5.26583 | 35421 ft | 488 kts | 118° |
| 2026-04-22 07:31 | 54.15508 | -5.16319 | 35420 ft | 488 kts | 118° |
| 2026-04-22 07:31 | 54.12344 | -5.06060 | 35402 ft | 489 kts | 118° |
| 2026-04-22 07:32 | 54.09170 | -4.95815 | 35411 ft | 489 kts | 119° |
| 2026-04-22 07:32 | 54.05983 | -4.85571 | 35417 ft | 490 kts | 119° |
| 2026-04-22 07:33 | 54.02807 | -4.75407 | 35400 ft | 490 kts | 119° |
| 2026-04-22 07:33 | 53.99601 | -4.65186 | 35429 ft | 490 kts | 119° |
| 2026-04-22 07:34 | 53.96360 | -4.54900 | 35426 ft | 490 kts | 119° |
| 2026-04-22 07:34 | 53.93159 | -4.44773 | 35417 ft | 490 kts | 119° |
| 2026-04-22 07:35 | 53.89879 | -4.34640 | 35405 ft | 489 kts | 123° |
| 2026-04-22 07:35 | 53.86003 | -4.25177 | 35402 ft | 489 kts | 127° |
| 2026-04-22 07:36 | 53.82075 | -4.15740 | 35420 ft | 491 kts | 126° |
| 2026-04-22 07:36 | 53.78172 | -4.06256 | 35411 ft | 491 kts | 126° |
| 2026-04-22 07:37 | 53.74262 | -3.96791 | 35400 ft | 491 kts | 126° |
| 2026-04-22 07:37 | 53.70338 | -3.87337 | 35409 ft | 492 kts | 126° |
| 2026-04-22 07:38 | 53.66410 | -3.77906 | 35396 ft | 491 kts | 126° |
| 2026-04-22 07:38 | 53.62488 | -3.68520 | 35409 ft | 489 kts | 126° |
| 2026-04-22 07:39 | 53.58565 | -3.59168 | 35418 ft | 489 kts | 126° |
| 2026-04-22 07:39 | 53.54639 | -3.49828 | 35422 ft | 489 kts | 126° |
| 2026-04-22 07:40 | 53.50707 | -3.40502 | 35424 ft | 489 kts | 126° |
| 2026-04-22 07:40 | 53.46792 | -3.31251 | 35424 ft | 489 kts | 126° |
| 2026-04-22 07:41 | 53.42846 | -3.21957 | 35408 ft | 489 kts | 126° |
| 2026-04-22 07:41 | 53.38888 | -3.12676 | 35406 ft | 489 kts | 127° |
| 2026-04-22 07:42 | 53.34836 | -3.03518 | 35409 ft | 490 kts | 128° |
| 2026-04-22 07:42 | 53.30736 | -2.94405 | 35401 ft | 491 kts | 128° |
| 2026-04-22 07:43 | 53.26644 | -2.85278 | 35406 ft | 491 kts | 127° |
| 2026-04-22 07:43 | 53.22551 | -2.76159 | 35410 ft | 491 kts | 127° |
| 2026-04-22 07:44 | 53.18453 | -2.67047 | 35414 ft | 491 kts | 128° |
| 2026-04-22 07:44 | 53.14326 | -2.57997 | 35410 ft | 490 kts | 128° |
| 2026-04-22 07:45 | 53.10371 | -2.48744 | 35417 ft | 491 kts | 123° |
| 2026-04-22 07:45 | 53.06612 | -2.39256 | 35409 ft | 491 kts | 124° |
| 2026-04-22 07:46 | 53.02586 | -2.30105 | 35376 ft | 490 kts | 139° |
| 2026-04-22 07:46 | 52.96993 | -2.23768 | 35387 ft | 487 kts | 150° |
| 2026-04-22 07:47 | 52.91209 | -2.17918 | 35398 ft | 487 kts | 150° |
| 2026-04-22 07:47 | 52.85446 | -2.12016 | 35401 ft | 487 kts | 150° |
| 2026-04-22 07:48 | 52.79707 | -2.06060 | 35398 ft | 487 kts | 149° |
| 2026-04-22 07:48 | 52.73972 | -2.00098 | 35388 ft | 487 kts | 149° |
| 2026-04-22 07:49 | 52.68225 | -1.94144 | 35384 ft | 488 kts | 149° |
| 2026-04-22 07:49 | 52.62446 | -1.88183 | 34765 ft | 494 kts | 149° |
| 2026-04-22 07:50 | 52.59544 | -1.85197 | 33812 ft | 494 kts | 149° |
| 2026-04-22 07:50 | 52.56621 | -1.82194 | 32828 ft | 495 kts | 150° |
| 2026-04-22 07:50 | 52.53702 | -1.79200 | 31847 ft | 495 kts | 150° |
| 2026-04-22 07:50 | 52.50774 | -1.76201 | 30842 ft | 497 kts | 150° |
| 2026-04-22 07:51 | 52.47837 | -1.73198 | 29684 ft | 498 kts | 149° |
| 2026-04-22 07:51 | 52.44894 | -1.70194 | 28444 ft | 499 kts | 149° |
| 2026-04-22 07:51 | 52.41954 | -1.67197 | 27208 ft | 499 kts | 149° |
| 2026-04-22 07:51 | 52.39004 | -1.64194 | 26023 ft | 499 kts | 149° |
| 2026-04-22 07:52 | 52.36083 | -1.61225 | 25153 ft | 490 kts | 149° |
| 2026-04-22 07:52 | 52.33204 | -1.58303 | 24243 ft | 484 kts | 149° |
| 2026-04-22 07:52 | 52.30361 | -1.55422 | 23248 ft | 478 kts | 149° |
| 2026-04-22 07:52 | 52.27552 | -1.52579 | 22281 ft | 470 kts | 148° |
| 2026-04-22 07:53 | 52.24797 | -1.49797 | 21368 ft | 461 kts | 148° |
| 2026-04-22 07:53 | 52.22092 | -1.47067 | 20458 ft | 454 kts | 147° |
| 2026-04-22 07:53 | 52.19566 | -1.44125 | 20008 ft | 438 kts | 140° |
| 2026-04-22 07:53 | 52.17270 | -1.40957 | 19550 ft | 426 kts | 138° |
| 2026-04-22 07:54 | 52.15082 | -1.37760 | 19140 ft | 420 kts | 137° |
| 2026-04-22 07:54 | 52.12931 | -1.34610 | 18711 ft | 423 kts | 137° |
| 2026-04-22 07:54 | 52.10727 | -1.31438 | 18238 ft | 421 kts | 138° |
| 2026-04-22 07:54 | 52.08542 | -1.28348 | 17779 ft | 413 kts | 138° |
| 2026-04-22 07:55 | 52.06369 | -1.25314 | 17363 ft | 410 kts | 138° |
| 2026-04-22 07:55 | 52.04213 | -1.22323 | 16934 ft | 406 kts | 138° |
| 2026-04-22 07:55 | 52.02061 | -1.19345 | 16501 ft | 408 kts | 138° |
| 2026-04-22 07:55 | 51.99911 | -1.16372 | 16088 ft | 404 kts | 138° |
| 2026-04-22 07:56 | 51.97782 | -1.13432 | 15684 ft | 399 kts | 137° |
| 2026-04-22 07:56 | 51.95683 | -1.10536 | 15265 ft | 394 kts | 137° |
| 2026-04-22 07:56 | 51.93598 | -1.07662 | 14659 ft | 394 kts | 138° |
| 2026-04-22 07:56 | 51.91511 | -1.04787 | 14061 ft | 392 kts | 138° |
| 2026-04-22 07:57 | 51.89442 | -1.01942 | 13396 ft | 388 kts | 138° |
| 2026-04-22 07:57 | 51.87414 | -0.99159 | 12779 ft | 376 kts | 138° |
| 2026-04-22 07:57 | 51.85335 | -0.96696 | 12218 ft | 366 kts | 147° |
| 2026-04-22 07:57 | 51.83076 | -0.94901 | 11661 ft | 359 kts | 156° |
| 2026-04-22 07:58 | 51.80745 | -0.93599 | 11140 ft | 350 kts | 158° |
| 2026-04-22 07:58 | 51.78466 | -0.92348 | 10603 ft | 342 kts | 158° |
| 2026-04-22 07:58 | 51.76238 | -0.91119 | 10214 ft | 332 kts | 157° |
| 2026-04-22 07:58 | 51.74130 | -0.89955 | 10216 ft | 310 kts | 157° |
| 2026-04-22 07:59 | 51.72145 | -0.88852 | 10103 ft | 294 kts | 156° |
| 2026-04-22 07:59 | 51.70260 | -0.87800 | 9992 ft | 279 kts | 156° |
| 2026-04-22 07:59 | 51.68469 | -0.86799 | 9876 ft | 266 kts | 156° |
| 2026-04-22 07:59 | 51.66738 | -0.85827 | 9593 ft | 261 kts | 156° |
| 2026-04-22 08:00 | 51.65046 | -0.84877 | 9110 ft | 256 kts | 156° |
| 2026-04-22 08:00 | 51.63364 | -0.83933 | 8533 ft | 256 kts | 156° |
| 2026-04-22 08:00 | 51.61692 | -0.82995 | 8010 ft | 253 kts | 156° |
| 2026-04-22 08:00 | 51.60053 | -0.82078 | 7503 ft | 246 kts | 155° |
| 2026-04-22 08:01 | 51.58449 | -0.81182 | 6779 ft | 243 kts | 155° |
| 2026-04-22 08:01 | 51.56862 | -0.80296 | 5979 ft | 240 kts | 155° |
| 2026-04-22 08:01 | 51.55826 | -0.79718 | 5482 ft | 236 kts | 155° |
| 2026-04-22 08:01 | 51.54294 | -0.78864 | 4727 ft | 231 kts | 155° |
| 2026-04-22 08:02 | 51.52790 | -0.78027 | 3951 ft | 227 kts | 155° |
| 2026-04-22 08:02 | 51.51343 | -0.77227 | 3654 ft | 209 kts | 155° |
| 2026-04-22 08:02 | 51.50047 | -0.76514 | 3520 ft | 186 kts | 154° |
| 2026-04-22 08:02 | 51.48866 | -0.75854 | 3434 ft | 176 kts | 151° |
| 2026-04-22 08:03 | 51.48016 | -0.74662 | 3330 ft | 160 kts | 108° |
| 2026-04-22 08:03 | 51.47902 | -0.72886 | 3172 ft | 163 kts | 96° |
| 2026-04-22 08:03 | 51.47744 | -0.71068 | 2937 ft | 164 kts | 96° |
| 2026-04-22 08:03 | 51.47708 | -0.69250 | 2713 ft | 162 kts | 91° |
| 2026-04-22 08:04 | 51.47709 | -0.67495 | 2494 ft | 150 kts | 91° |
| 2026-04-22 08:04 | 51.47712 | -0.65916 | 2288 ft | 134 kts | 90° |
| 2026-04-22 08:04 | 51.47714 | -0.64494 | 2109 ft | 122 kts | 90° |
| 2026-04-22 08:04 | 51.47716 | -0.63153 | 1991 ft | 119 kts | 90° |
| 2026-04-22 08:05 | 51.47719 | -0.61850 | 1799 ft | 113 kts | 90° |
| 2026-04-22 08:05 | 51.47720 | -0.60635 | 1631 ft | 106 kts | 89° |
| 2026-04-22 08:05 | 51.47704 | -0.59449 | 1457 ft | 107 kts | 91° |
| 2026-04-22 08:05 | 51.47726 | -0.58258 | 1380 ft | 108 kts | 89° |
| 2026-04-22 08:06 | 51.47722 | -0.57030 | 1262 ft | 111 kts | 87° |
| 2026-04-22 08:06 | 51.47728 | -0.55793 | 1190 ft | 112 kts | 89° |
| 2026-04-22 08:06 | 51.47726 | -0.54507 | 940 ft | 115 kts | 88° |
| 2026-04-22 08:06 | 51.47730 | -0.53227 | 827 ft | 116 kts | 86° |
| 2026-04-22 08:07 | 51.47747 | -0.51897 | 602 ft | 120 kts | 86° |
| 2026-04-22 08:07 | 51.47744 | -0.50594 | 416 ft | 114 kts | 88° |
| 2026-04-22 08:07 | 51.47749 | -0.49313 | 251 ft | 116 kts | 87° |
| 2026-04-22 08:07 | 51.47758 | -0.48032 | 98 ft | 107 kts | 87° |
| 2026-04-22 08:08 | 51.47769 | -0.47015 | 92 ft | 74 kts | 88° |
| 2026-04-22 08:08 | 51.47769 | -0.46386 | 89 ft | 39 kts | 91° |
| 2026-04-22 08:08 | 51.47764 | -0.46041 | 85 ft | 29 kts | 91° |
| 2026-04-22 08:08 | 51.47761 | -0.45727 | 83 ft | 27 kts | 90° |
| 2026-04-22 08:09 | 51.47760 | -0.45433 | 84 ft | 25 kts | 90° |
| 2026-04-22 08:09 | 51.47760 | -0.45160 | 90 ft | 24 kts | 90° |
| 2026-04-22 08:09 | 51.47745 | -0.44909 | 89 ft | 22 kts | 121° |
| 2026-04-22 08:09 | 51.47626 | -0.44768 | 86 ft | 21 kts | 149° |
| 2026-04-22 08:10 | 51.47598 | -0.44619 | 85 ft | 7 kts | 88° |
| 2026-04-22 08:10 | 51.47599 | -0.44593 | 85 ft | 0 kts | 88° |
| 2026-04-22 08:10 | 51.47600 | -0.44475 | 85 ft | 17 kts | 89° |
| 2026-04-22 08:10 | 51.47601 | -0.44282 | 85 ft | 17 kts | 90° |
| 2026-04-22 08:11 | 51.47593 | -0.44112 | 88 ft | 13 kts | 108° |
| 2026-04-22 08:11 | 51.47521 | -0.44046 | 85 ft | 13 kts | 180° |
| 2026-04-22 08:11 | 51.47431 | -0.44057 | 85 ft | 14 kts | 183° |
| 2026-04-22 08:11 | 51.47315 | -0.44058 | 85 ft | 18 kts | 180° |
| 2026-04-22 08:12 | 51.47187 | -0.44056 | 85 ft | 18 kts | 180° |
| 2026-04-22 08:12 | 51.47063 | -0.44058 | 85 ft | 17 kts | 180° |
| 2026-04-22 08:12 | 51.46944 | -0.44059 | 85 ft | 17 kts | 180° |
| 2026-04-22 08:12 | 51.46860 | -0.44055 | 85 ft | 6 kts | 179° |
| 2026-04-22 08:13 | 51.46850 | -0.44055 | 85 ft | 0 kts | 179° |
| 2026-04-22 08:13 | 51.46823 | -0.44054 | 85 ft | 6 kts | 179° |
| 2026-04-22 08:14 | 51.46784 | -0.44023 | 87 ft | 7 kts | 126° |
| 2026-04-22 08:14 | 51.46772 | -0.43891 | 86 ft | 17 kts | 91° |
| 2026-04-22 08:14 | 51.46773 | -0.43702 | 87 ft | 17 kts | 87° |
| 2026-04-22 08:14 | 51.46772 | -0.43516 | 85 ft | 16 kts | 103° |
| 2026-04-22 08:15 | 51.46682 | -0.43435 | 85 ft | 14 kts | 179° |
| 2026-04-22 08:15 | 51.46634 | -0.43435 | 85 ft | 3 kts | 179° |
| 2026-04-22 08:15 | 51.46611 | -0.43434 | 87 ft | 3 kts | 179° |
| 2026-04-22 08:15 | 51.46610 | -0.43434 | 87 ft | 0 kts | 179° |
| 2026-04-22 08:16 | 51.46567 | -0.43433 | 86 ft | 14 kts | 179° |
| 2026-04-22 08:16 | 51.46444 | -0.43464 | 88 ft | 20 kts | 202° |
| 2026-04-22 08:16 | 51.46348 | -0.43520 | 85 ft | 12 kts | 199° |
| 2026-04-22 08:17 | 51.46276 | -0.43561 | 85 ft | 7 kts | 199° |
| 2026-04-22 08:17 | 51.46220 | -0.43597 | 87 ft | 14 kts | 213° |
| 2026-04-22 08:17 | 51.46203 | -0.43752 | 85 ft | 15 kts | 270° |
| 2026-04-22 08:17 | 51.46180 | -0.43790 | 85 ft | 6 kts | 194° |
| 2026-04-22 08:18 | 51.46141 | -0.43792 | 85 ft | 4 kts | 179° |
| 2026-04-22 08:18 | 51.46120 | -0.43792 | 89 ft | 2 kts | 179° |
| 2026-04-22 08:18 | 51.46119 | -0.43792 | 89 ft | 0 kts | 179° |